AFR822 LFPG-FGSL
Flight info
| Callsign | AFR822 |
|---|---|
| Flight time | 7h 5m |
| Altitude | 35000 |
| Route | AGOPA DCT ARKIP DCT ARMAL DCT ARTAX/N0487F370 DCT BEBIX DCT LMG DCT UVELI DCT OSMOB DCT VAVIX DCT NETUK DCT PPN DCT NOLSA DCT ALEPO DCT VASUM N10 BAN DCT GOTOR DCT KAMPO DCT MONTO DCT MOLIN DCT HIJ DCT SVL DCT CLANA DCT KORNO UN857 ABODA UR722 MABAP DCT BULIS UR981 POTOL/N0491F390 UR981 BAKAB/N0495F380 UA603 LIPET/N0492F390 DCT BATIA DCT TENTU DCT ARDEX |
| Aircraft | B789/H-SDE1E2E3FGHIJ2J3J4J5M1RWXY/LB1D1 |
Departure
| Time | 2026-05-08 14:33 |
|---|---|
| Airport | Charles de Gaulle International Airport (LFPG) |
Arrival
| Time | 2026-05-08 21:38 |
|---|---|
| Airport | Malabo International Airport (FGSL) |
| Time | Latitude | Longitude | Altitude | Speed | Heading |
|---|---|---|---|---|---|
| 2026-05-08 14:33 | 48.79591 | 2.53016 | 14433 ft | 372 kts | 235° |
| 2026-05-08 14:33 | 48.78100 | 2.49794 | 14882 ft | 374 kts | 235° |
| 2026-05-08 14:33 | 48.76586 | 2.46564 | 15316 ft | 377 kts | 234° |
| 2026-05-08 14:34 | 48.75053 | 2.43316 | 15747 ft | 379 kts | 234° |
| 2026-05-08 14:34 | 48.73492 | 2.40130 | 16148 ft | 382 kts | 230° |
| 2026-05-08 14:34 | 48.71447 | 2.37532 | 16510 ft | 386 kts | 214° |
| 2026-05-08 14:34 | 48.69138 | 2.35429 | 16970 ft | 388 kts | 212° |
| 2026-05-08 14:35 | 48.66802 | 2.33376 | 17367 ft | 390 kts | 211° |
| 2026-05-08 14:35 | 48.64447 | 2.31279 | 17762 ft | 392 kts | 212° |
| 2026-05-08 14:35 | 48.62101 | 2.29147 | 18167 ft | 395 kts | 212° |
| 2026-05-08 14:35 | 48.59741 | 2.27010 | 18481 ft | 396 kts | 212° |
| 2026-05-08 14:36 | 48.57387 | 2.24904 | 18865 ft | 399 kts | 212° |
| 2026-05-08 14:36 | 48.54995 | 2.22769 | 19182 ft | 401 kts | 213° |
| 2026-05-08 14:36 | 48.52581 | 2.20605 | 19509 ft | 404 kts | 213° |
| 2026-05-08 14:36 | 48.50156 | 2.18431 | 19797 ft | 407 kts | 213° |
| 2026-05-08 14:37 | 48.47703 | 2.16267 | 20093 ft | 410 kts | 213° |
| 2026-05-08 14:37 | 48.45219 | 2.14112 | 20372 ft | 413 kts | 213° |
| 2026-05-08 14:37 | 48.42721 | 2.11927 | 20652 ft | 415 kts | 214° |
| 2026-05-08 14:37 | 48.40217 | 2.09721 | 20927 ft | 418 kts | 214° |
| 2026-05-08 14:38 | 48.37724 | 2.07535 | 21226 ft | 421 kts | 214° |
| 2026-05-08 14:38 | 48.35186 | 2.05320 | 21500 ft | 423 kts | 214° |
| 2026-05-08 14:38 | 48.32627 | 2.03103 | 21770 ft | 426 kts | 213° |
| 2026-05-08 14:38 | 48.29855 | 2.01393 | 21972 ft | 437 kts | 201° |
| 2026-05-08 14:39 | 48.26944 | 2.00547 | 22203 ft | 446 kts | 189° |
| 2026-05-08 14:39 | 48.23817 | 2.00497 | 22474 ft | 451 kts | 183° |
| 2026-05-08 14:39 | 48.20669 | 2.00607 | 22702 ft | 454 kts | 182° |
| 2026-05-08 14:39 | 48.17532 | 2.00720 | 22997 ft | 455 kts | 182° |
| 2026-05-08 14:40 | 48.14356 | 2.00806 | 23241 ft | 458 kts | 183° |
| 2026-05-08 14:40 | 48.11154 | 2.00884 | 23480 ft | 461 kts | 183° |
| 2026-05-08 14:40 | 48.07937 | 2.00986 | 23697 ft | 463 kts | 182° |
| 2026-05-08 14:40 | 48.04698 | 2.01233 | 23881 ft | 466 kts | 181° |
| 2026-05-08 14:41 | 48.01455 | 2.01401 | 24108 ft | 467 kts | 182° |
| 2026-05-08 14:41 | 47.98205 | 2.01553 | 24342 ft | 468 kts | 181° |
| 2026-05-08 14:41 | 47.94993 | 2.01751 | 24608 ft | 468 kts | 181° |
| 2026-05-08 14:41 | 47.91728 | 2.01972 | 24833 ft | 469 kts | 181° |
| 2026-05-08 14:42 | 47.88461 | 2.02167 | 25061 ft | 470 kts | 181° |
| 2026-05-08 14:42 | 47.85178 | 2.02346 | 25275 ft | 472 kts | 181° |
| 2026-05-08 14:42 | 47.82000 | 2.02529 | 25481 ft | 473 kts | 181° |
| 2026-05-08 14:42 | 47.78706 | 2.02733 | 25676 ft | 474 kts | 181° |
| 2026-05-08 14:43 | 47.75444 | 2.02930 | 25920 ft | 474 kts | 181° |
| 2026-05-08 14:43 | 47.72112 | 2.03124 | 26173 ft | 474 kts | 181° |
| 2026-05-08 14:43 | 47.68802 | 2.03314 | 26386 ft | 475 kts | 181° |
| 2026-05-08 14:43 | 47.65533 | 2.03508 | 26583 ft | 477 kts | 181° |
| 2026-05-08 14:44 | 47.62208 | 2.03706 | 26805 ft | 478 kts | 181° |
| 2026-05-08 14:44 | 47.58864 | 2.03898 | 27014 ft | 479 kts | 181° |
| 2026-05-08 14:44 | 47.55527 | 2.04084 | 27232 ft | 480 kts | 181° |
| 2026-05-08 14:44 | 47.52185 | 2.04273 | 27480 ft | 481 kts | 181° |
| 2026-05-08 14:45 | 47.48884 | 2.04464 | 27699 ft | 482 kts | 181° |
| 2026-05-08 14:45 | 47.45521 | 2.04657 | 27913 ft | 483 kts | 181° |
| 2026-05-08 14:45 | 47.42149 | 2.04848 | 28133 ft | 485 kts | 181° |
| 2026-05-08 14:45 | 47.38774 | 2.05038 | 28344 ft | 486 kts | 181° |
| 2026-05-08 14:46 | 47.35376 | 2.05220 | 28551 ft | 486 kts | 182° |
| 2026-05-08 14:46 | 47.32047 | 2.04835 | 28745 ft | 481 kts | 193° |
| 2026-05-08 14:46 | 47.28756 | 2.03966 | 28985 ft | 482 kts | 194° |
| 2026-05-08 14:46 | 47.25442 | 2.03090 | 29206 ft | 484 kts | 193° |
| 2026-05-08 14:47 | 47.22118 | 2.02260 | 29426 ft | 485 kts | 193° |
| 2026-05-08 14:47 | 47.18791 | 2.01442 | 29659 ft | 487 kts | 193° |
| 2026-05-08 14:47 | 47.15443 | 2.00595 | 29880 ft | 488 kts | 193° |
| 2026-05-08 14:47 | 47.12099 | 1.99738 | 30146 ft | 488 kts | 193° |
| 2026-05-08 14:48 | 47.08742 | 1.98889 | 30352 ft | 489 kts | 193° |
| 2026-05-08 14:48 | 47.05373 | 1.98052 | 30545 ft | 491 kts | 193° |
| 2026-05-08 14:48 | 47.02003 | 1.97208 | 30732 ft | 492 kts | 193° |
| 2026-05-08 14:48 | 46.98617 | 1.96353 | 30917 ft | 493 kts | 193° |
| 2026-05-08 14:49 | 46.95266 | 1.95511 | 31118 ft | 495 kts | 193° |
| 2026-05-08 14:49 | 46.91864 | 1.94662 | 31384 ft | 495 kts | 193° |
| 2026-05-08 14:49 | 46.88470 | 1.93817 | 31650 ft | 495 kts | 193° |
| 2026-05-08 14:49 | 46.85079 | 1.92970 | 31933 ft | 494 kts | 193° |
| 2026-05-08 14:50 | 46.81684 | 1.92121 | 32232 ft | 494 kts | 193° |
| 2026-05-08 14:50 | 46.78300 | 1.91279 | 32545 ft | 493 kts | 193° |
| 2026-05-08 14:50 | 46.74957 | 1.90449 | 32859 ft | 492 kts | 193° |
| 2026-05-08 14:50 | 46.71581 | 1.89611 | 33193 ft | 491 kts | 193° |
| 2026-05-08 14:51 | 46.68213 | 1.88775 | 33518 ft | 490 kts | 193° |
| 2026-05-08 14:51 | 46.64845 | 1.87941 | 33831 ft | 489 kts | 193° |
| 2026-05-08 14:51 | 46.61489 | 1.87111 | 34127 ft | 489 kts | 193° |
| 2026-05-08 14:51 | 46.58139 | 1.86283 | 34393 ft | 488 kts | 193° |
| 2026-05-08 14:52 | 46.54788 | 1.85456 | 34647 ft | 487 kts | 193° |
| 2026-05-08 14:52 | 46.48197 | 1.83835 | 34924 ft | 474 kts | 193° |
| 2026-05-08 14:52 | 46.44985 | 1.83049 | 34920 ft | 462 kts | 193° |
| 2026-05-08 14:53 | 46.41836 | 1.82273 | 34925 ft | 457 kts | 193° |
| 2026-05-08 14:53 | 46.35545 | 1.80725 | 34934 ft | 459 kts | 193° |
| 2026-05-08 14:54 | 46.29262 | 1.79129 | 34924 ft | 455 kts | 197° |
| 2026-05-08 14:54 | 46.23588 | 1.75426 | 34934 ft | 447 kts | 217° |
| 2026-05-08 14:55 | 46.18838 | 1.69674 | 34956 ft | 445 kts | 223° |
| 2026-05-08 14:55 | 46.14165 | 1.63855 | 34948 ft | 445 kts | 223° |
| 2026-05-08 14:56 | 46.09481 | 1.58019 | 34948 ft | 444 kts | 222° |
| 2026-05-08 14:56 | 46.04856 | 1.52276 | 34956 ft | 444 kts | 222° |
| 2026-05-08 14:57 | 46.00193 | 1.46497 | 34955 ft | 445 kts | 222° |
| 2026-05-08 14:57 | 45.95634 | 1.40479 | 34937 ft | 443 kts | 231° |
| 2026-05-08 14:58 | 45.92430 | 1.32967 | 34969 ft | 442 kts | 243° |
| 2026-05-08 14:58 | 45.89635 | 1.25071 | 34977 ft | 443 kts | 243° |
| 2026-05-08 14:59 | 45.86839 | 1.17234 | 34988 ft | 443 kts | 242° |
| 2026-05-08 14:59 | 45.82586 | 1.05447 | 34956 ft | 444 kts | 238° |
| 2026-05-08 15:00 | 45.78516 | 0.98847 | 34977 ft | 443 kts | 220° |
| 2026-05-08 15:00 | 45.73757 | 0.93170 | 34953 ft | 444 kts | 220° |
| 2026-05-08 15:01 | 45.69044 | 0.87525 | 34943 ft | 444 kts | 220° |
| 2026-05-08 15:01 | 45.64312 | 0.81882 | 34938 ft | 444 kts | 220° |
| 2026-05-08 15:02 | 45.59570 | 0.76236 | 34922 ft | 444 kts | 220° |
| 2026-05-08 15:02 | 45.54799 | 0.70570 | 34942 ft | 447 kts | 219° |
| 2026-05-08 15:03 | 45.49999 | 0.64884 | 34914 ft | 447 kts | 219° |
| 2026-05-08 15:03 | 45.45231 | 0.59247 | 34910 ft | 446 kts | 219° |
| 2026-05-08 15:04 | 45.40448 | 0.53606 | 34930 ft | 445 kts | 219° |
| 2026-05-08 15:04 | 45.35659 | 0.47969 | 34919 ft | 447 kts | 219° |
| 2026-05-08 15:05 | 45.30874 | 0.42351 | 34925 ft | 448 kts | 219° |
| 2026-05-08 15:05 | 45.26063 | 0.36716 | 34915 ft | 448 kts | 218° |
| 2026-05-08 15:06 | 45.21264 | 0.31106 | 34917 ft | 449 kts | 218° |
| 2026-05-08 15:06 | 45.16438 | 0.25477 | 34916 ft | 450 kts | 218° |
| 2026-05-08 15:07 | 45.11582 | 0.19828 | 34914 ft | 451 kts | 218° |
| 2026-05-08 15:07 | 45.06747 | 0.14215 | 34906 ft | 451 kts | 218° |
| 2026-05-08 15:08 | 45.02706 | 0.09533 | 34910 ft | 451 kts | 218° |
| 2026-05-08 15:08 | 44.97055 | 0.03001 | 34907 ft | 454 kts | 217° |
| 2026-05-08 15:09 | 44.92124 | -0.02684 | 34908 ft | 458 kts | 217° |
| 2026-05-08 15:09 | 44.87174 | -0.08378 | 34913 ft | 458 kts | 217° |
| 2026-05-08 15:10 | 44.82267 | -0.14011 | 34908 ft | 457 kts | 217° |
| 2026-05-08 15:10 | 44.77338 | -0.19654 | 34904 ft | 456 kts | 217° |
| 2026-05-08 15:11 | 44.72403 | -0.25292 | 34905 ft | 456 kts | 217° |
| 2026-05-08 15:11 | 44.67467 | -0.30919 | 34909 ft | 457 kts | 217° |
| 2026-05-08 15:12 | 44.62458 | -0.36221 | 34910 ft | 456 kts | 212° |
| 2026-05-08 15:12 | 44.57195 | -0.41250 | 34916 ft | 456 kts | 212° |
| 2026-05-08 15:13 | 44.52001 | -0.46270 | 34919 ft | 456 kts | 212° |
| 2026-05-08 15:13 | 44.46755 | -0.51289 | 34917 ft | 455 kts | 212° |
| 2026-05-08 15:14 | 44.41557 | -0.56272 | 34915 ft | 454 kts | 212° |
| 2026-05-08 15:14 | 44.36350 | -0.61243 | 34917 ft | 451 kts | 211° |
| 2026-05-08 15:15 | 44.31155 | -0.66194 | 34918 ft | 452 kts | 211° |
| 2026-05-08 15:15 | 44.25976 | -0.71110 | 34918 ft | 452 kts | 211° |
| 2026-05-08 15:16 | 44.20687 | -0.75924 | 34918 ft | 453 kts | 210° |
| 2026-05-08 15:16 | 44.15437 | -0.80774 | 34915 ft | 455 kts | 210° |
| 2026-05-08 15:17 | 44.10145 | -0.85620 | 34919 ft | 455 kts | 210° |
| 2026-05-08 15:17 | 44.04853 | -0.90463 | 34919 ft | 454 kts | 210° |
| 2026-05-08 15:18 | 43.99603 | -0.95259 | 34911 ft | 455 kts | 210° |
| 2026-05-08 15:18 | 43.94301 | -1.00088 | 34906 ft | 456 kts | 210° |
| 2026-05-08 15:19 | 43.89883 | -1.04108 | 34901 ft | 456 kts | 210° |
| 2026-05-08 15:19 | 43.84574 | -1.08925 | 34896 ft | 455 kts | 210° |
| 2026-05-08 15:20 | 43.79281 | -1.13720 | 34891 ft | 453 kts | 210° |
| 2026-05-08 15:20 | 43.74010 | -1.18483 | 34887 ft | 452 kts | 210° |
| 2026-05-08 15:21 | 43.68762 | -1.23215 | 34888 ft | 453 kts | 210° |
| 2026-05-08 15:21 | 43.63462 | -1.27985 | 34892 ft | 453 kts | 210° |
| 2026-05-08 15:22 | 43.58205 | -1.32706 | 34901 ft | 453 kts | 210° |
| 2026-05-08 15:22 | 43.52915 | -1.37445 | 34898 ft | 453 kts | 210° |
| 2026-05-08 15:23 | 43.47621 | -1.42178 | 34891 ft | 453 kts | 210° |
| 2026-05-08 15:23 | 43.42314 | -1.46914 | 34892 ft | 453 kts | 210° |
| 2026-05-08 15:24 | 43.37072 | -1.51582 | 34874 ft | 450 kts | 211° |
| 2026-05-08 15:24 | 43.31812 | -1.56255 | 34886 ft | 449 kts | 211° |
| 2026-05-08 15:25 | 43.26426 | -1.60574 | 34890 ft | 448 kts | 201° |
| 2026-05-08 15:25 | 43.20370 | -1.62476 | 34915 ft | 446 kts | 187° |
| 2026-05-08 15:26 | 43.14254 | -1.63468 | 34908 ft | 444 kts | 187° |
| 2026-05-08 15:26 | 43.08112 | -1.64497 | 34917 ft | 444 kts | 187° |
| 2026-05-08 15:27 | 43.01968 | -1.65505 | 34928 ft | 444 kts | 187° |
| 2026-05-08 15:27 | 42.95809 | -1.66522 | 34932 ft | 446 kts | 188° |
| 2026-05-08 15:28 | 42.89677 | -1.67529 | 34925 ft | 446 kts | 188° |
| 2026-05-08 15:28 | 42.83496 | -1.68543 | 34947 ft | 447 kts | 188° |
| 2026-05-08 15:29 | 42.77313 | -1.69556 | 34946 ft | 446 kts | 188° |
| 2026-05-08 15:29 | 42.71380 | -1.71562 | 34931 ft | 443 kts | 204° |
| 2026-05-08 15:30 | 42.65849 | -1.75282 | 34940 ft | 443 kts | 206° |
| 2026-05-08 15:30 | 42.60307 | -1.78988 | 34935 ft | 443 kts | 206° |
| 2026-05-08 15:31 | 42.54793 | -1.82698 | 34930 ft | 441 kts | 207° |
| 2026-05-08 15:31 | 42.49304 | -1.86368 | 34915 ft | 441 kts | 207° |
| 2026-05-08 15:32 | 42.43787 | -1.90056 | 34929 ft | 441 kts | 207° |
| 2026-05-08 15:32 | 42.38395 | -1.93650 | 34921 ft | 440 kts | 207° |
| 2026-05-08 15:33 | 42.32900 | -1.97308 | 34918 ft | 439 kts | 207° |
| 2026-05-08 15:33 | 42.27409 | -2.00969 | 34913 ft | 439 kts | 208° |
| 2026-05-08 15:34 | 42.21944 | -2.04584 | 34915 ft | 440 kts | 207° |
| 2026-05-08 15:34 | 42.16433 | -2.08220 | 34921 ft | 439 kts | 208° |
| 2026-05-08 15:35 | 42.10945 | -2.11847 | 34908 ft | 439 kts | 208° |
| 2026-05-08 15:35 | 42.05459 | -2.15460 | 34910 ft | 438 kts | 208° |
| 2026-05-08 15:36 | 41.99970 | -2.19071 | 34917 ft | 439 kts | 208° |
| 2026-05-08 15:36 | 41.94514 | -2.22651 | 34922 ft | 437 kts | 208° |
| 2026-05-08 15:37 | 41.89056 | -2.26229 | 34924 ft | 435 kts | 208° |
| 2026-05-08 15:37 | 41.83598 | -2.29798 | 34911 ft | 435 kts | 208° |
| 2026-05-08 15:38 | 41.78144 | -2.33358 | 34928 ft | 435 kts | 208° |
| 2026-05-08 15:38 | 41.72697 | -2.36905 | 34921 ft | 436 kts | 209° |
| 2026-05-08 15:39 | 41.67275 | -2.40432 | 34919 ft | 435 kts | 209° |
| 2026-05-08 15:39 | 41.61812 | -2.43976 | 34921 ft | 434 kts | 209° |
| 2026-05-08 15:40 | 41.56372 | -2.47501 | 34920 ft | 435 kts | 209° |
| 2026-05-08 15:40 | 41.50959 | -2.51000 | 34918 ft | 434 kts | 209° |
| 2026-05-08 15:41 | 41.45522 | -2.54509 | 34920 ft | 433 kts | 209° |
| 2026-05-08 15:41 | 41.40107 | -2.57996 | 34924 ft | 434 kts | 209° |
| 2026-05-08 15:42 | 41.34659 | -2.61498 | 34920 ft | 434 kts | 209° |
| 2026-05-08 15:42 | 41.29535 | -2.65586 | 34933 ft | 428 kts | 218° |
| 2026-05-08 15:43 | 41.24619 | -2.70107 | 34933 ft | 427 kts | 217° |
| 2026-05-08 15:43 | 41.19754 | -2.74583 | 34935 ft | 427 kts | 217° |
| 2026-05-08 15:44 | 41.14860 | -2.79077 | 34936 ft | 428 kts | 217° |
| 2026-05-08 15:44 | 41.09960 | -2.83566 | 34944 ft | 428 kts | 217° |
| 2026-05-08 15:45 | 41.05050 | -2.88058 | 34932 ft | 427 kts | 217° |
| 2026-05-08 15:45 | 41.00185 | -2.92498 | 34930 ft | 426 kts | 217° |
| 2026-05-08 15:46 | 40.95307 | -2.96944 | 34932 ft | 427 kts | 217° |
| 2026-05-08 15:46 | 40.90401 | -3.01407 | 34937 ft | 428 kts | 217° |
| 2026-05-08 15:47 | 40.85513 | -3.05844 | 34953 ft | 426 kts | 217° |
| 2026-05-08 15:47 | 40.80652 | -3.10250 | 34931 ft | 422 kts | 217° |
| 2026-05-08 15:48 | 40.73389 | -3.16818 | 34931 ft | 423 kts | 217° |
| 2026-05-08 15:49 | 40.68529 | -3.21203 | 34925 ft | 424 kts | 217° |
| 2026-05-08 15:49 | 40.63670 | -3.25579 | 34926 ft | 424 kts | 217° |
| 2026-05-08 15:50 | 40.58784 | -3.29971 | 34924 ft | 425 kts | 217° |
| 2026-05-08 15:50 | 40.53923 | -3.34334 | 34922 ft | 424 kts | 217° |
| 2026-05-08 15:51 | 40.49029 | -3.38717 | 34919 ft | 423 kts | 217° |
| 2026-05-08 15:51 | 40.44186 | -3.43048 | 34915 ft | 422 kts | 217° |
| 2026-05-08 15:52 | 40.39350 | -3.47361 | 34906 ft | 414 kts | 217° |
| 2026-05-08 15:52 | 40.34593 | -3.51604 | 34909 ft | 414 kts | 217° |
| 2026-05-08 15:53 | 40.29845 | -3.55826 | 34915 ft | 416 kts | 217° |
| 2026-05-08 15:53 | 40.25045 | -3.60087 | 34920 ft | 416 kts | 217° |
| 2026-05-08 15:54 | 40.20249 | -3.64339 | 34918 ft | 416 kts | 217° |
| 2026-05-08 15:54 | 40.15491 | -3.68546 | 34901 ft | 409 kts | 218° |
| 2026-05-08 15:55 | 40.10779 | -3.72713 | 34900 ft | 409 kts | 218° |
| 2026-05-08 15:55 | 40.03754 | -3.78903 | 34887 ft | 410 kts | 218° |
| 2026-05-08 15:56 | 39.99017 | -3.83071 | 34896 ft | 410 kts | 217° |
| 2026-05-08 15:56 | 39.94290 | -3.87218 | 34880 ft | 405 kts | 218° |
| 2026-05-08 15:57 | 39.89674 | -3.91267 | 34873 ft | 402 kts | 218° |
| 2026-05-08 15:57 | 39.85015 | -3.95345 | 34875 ft | 404 kts | 218° |
| 2026-05-08 15:58 | 39.80326 | -3.99441 | 34881 ft | 405 kts | 218° |
| 2026-05-08 15:58 | 39.75671 | -4.03501 | 34885 ft | 405 kts | 218° |
| 2026-05-08 15:59 | 39.71003 | -4.07564 | 34869 ft | 398 kts | 218° |
| 2026-05-08 15:59 | 39.66425 | -4.11546 | 34876 ft | 395 kts | 218° |
| 2026-05-08 16:00 | 39.61855 | -4.15514 | 34875 ft | 397 kts | 218° |
| 2026-05-08 16:00 | 39.57250 | -4.19502 | 34878 ft | 397 kts | 218° |
| 2026-05-08 16:01 | 39.52640 | -4.23492 | 34880 ft | 397 kts | 218° |
| 2026-05-08 16:01 | 39.48062 | -4.27445 | 34953 ft | 396 kts | 218° |
| 2026-05-08 16:02 | 39.43445 | -4.31429 | 35256 ft | 400 kts | 218° |
| 2026-05-08 16:02 | 39.41125 | -4.33426 | 35389 ft | 403 kts | 218° |
| 2026-05-08 16:02 | 39.38786 | -4.35439 | 35554 ft | 405 kts | 218° |
| 2026-05-08 16:03 | 39.36458 | -4.37440 | 35657 ft | 408 kts | 218° |
| 2026-05-08 16:03 | 39.34085 | -4.39480 | 35818 ft | 410 kts | 218° |
| 2026-05-08 16:03 | 39.31699 | -4.41528 | 35960 ft | 412 kts | 218° |
| 2026-05-08 16:03 | 39.29304 | -4.43583 | 36084 ft | 415 kts | 218° |
| 2026-05-08 16:04 | 39.26895 | -4.45646 | 36229 ft | 416 kts | 218° |
| 2026-05-08 16:04 | 39.24474 | -4.47719 | 36461 ft | 416 kts | 218° |
| 2026-05-08 16:04 | 39.22057 | -4.49786 | 36658 ft | 417 kts | 218° |
| 2026-05-08 16:04 | 39.19663 | -4.51835 | 36802 ft | 419 kts | 218° |
| 2026-05-08 16:05 | 39.17234 | -4.53910 | 36936 ft | 421 kts | 218° |
| 2026-05-08 16:05 | 39.14781 | -4.56003 | 37071 ft | 423 kts | 218° |
| 2026-05-08 16:05 | 39.12322 | -4.58101 | 37223 ft | 425 kts | 217° |
| 2026-05-08 16:05 | 39.09846 | -4.60211 | 37379 ft | 427 kts | 217° |
| 2026-05-08 16:06 | 39.07362 | -4.62326 | 37495 ft | 429 kts | 217° |
| 2026-05-08 16:06 | 39.04866 | -4.64449 | 37629 ft | 431 kts | 217° |
| 2026-05-08 16:06 | 39.02358 | -4.66580 | 37738 ft | 433 kts | 217° |
| 2026-05-08 16:06 | 38.99851 | -4.68708 | 38049 ft | 431 kts | 217° |
| 2026-05-08 16:07 | 38.97339 | -4.70839 | 38176 ft | 433 kts | 217° |
| 2026-05-08 16:07 | 38.94822 | -4.72973 | 38305 ft | 434 kts | 217° |
| 2026-05-08 16:07 | 38.92287 | -4.75119 | 38439 ft | 436 kts | 217° |
| 2026-05-08 16:07 | 38.89774 | -4.77244 | 38565 ft | 438 kts | 217° |
| 2026-05-08 16:08 | 38.84657 | -4.81568 | 38707 ft | 441 kts | 217° |
| 2026-05-08 16:08 | 38.80397 | -4.85158 | 38808 ft | 437 kts | 217° |
| 2026-05-08 16:09 | 38.75349 | -4.89407 | 38833 ft | 423 kts | 217° |
| 2026-05-08 16:09 | 38.72914 | -4.91453 | 38814 ft | 412 kts | 217° |
| 2026-05-08 16:09 | 38.70534 | -4.93457 | 38797 ft | 408 kts | 217° |
| 2026-05-08 16:10 | 38.65808 | -4.97428 | 38809 ft | 410 kts | 217° |
| 2026-05-08 16:10 | 38.61013 | -5.01443 | 38814 ft | 412 kts | 217° |
| 2026-05-08 16:11 | 38.56235 | -5.05441 | 38825 ft | 412 kts | 217° |
| 2026-05-08 16:11 | 38.51448 | -5.09426 | 38805 ft | 405 kts | 216° |
| 2026-05-08 16:12 | 38.46445 | -5.12678 | 38803 ft | 407 kts | 211° |
| 2026-05-08 16:12 | 38.41338 | -5.15873 | 38815 ft | 409 kts | 211° |
| 2026-05-08 16:13 | 38.36241 | -5.19030 | 38816 ft | 410 kts | 211° |
| 2026-05-08 16:13 | 38.31104 | -5.22218 | 38825 ft | 410 kts | 211° |
| 2026-05-08 16:14 | 38.25991 | -5.25382 | 38827 ft | 410 kts | 211° |
| 2026-05-08 16:14 | 38.20855 | -5.28556 | 38873 ft | 409 kts | 211° |
| 2026-05-08 16:15 | 38.15717 | -5.31729 | 38874 ft | 410 kts | 211° |
| 2026-05-08 16:15 | 38.10597 | -5.34884 | 38863 ft | 413 kts | 211° |
| 2026-05-08 16:16 | 38.05410 | -5.38073 | 38867 ft | 412 kts | 211° |
| 2026-05-08 16:16 | 38.00299 | -5.41211 | 38861 ft | 408 kts | 211° |
| 2026-05-08 16:17 | 37.95180 | -5.44353 | 38859 ft | 408 kts | 211° |
| 2026-05-08 16:17 | 37.90084 | -5.47472 | 38861 ft | 409 kts | 211° |
| 2026-05-08 16:18 | 37.84957 | -5.50608 | 38859 ft | 409 kts | 211° |
| 2026-05-08 16:18 | 37.79838 | -5.53730 | 38858 ft | 405 kts | 211° |
| 2026-05-08 16:19 | 37.74761 | -5.56827 | 38851 ft | 404 kts | 211° |
| 2026-05-08 16:19 | 37.69705 | -5.59904 | 38854 ft | 405 kts | 211° |
| 2026-05-08 16:20 | 37.64600 | -5.63005 | 38854 ft | 407 kts | 211° |
| 2026-05-08 16:20 | 37.59513 | -5.66091 | 38865 ft | 407 kts | 211° |
| 2026-05-08 16:21 | 37.54422 | -5.69172 | 38851 ft | 401 kts | 211° |
| 2026-05-08 16:21 | 37.49404 | -5.72212 | 38857 ft | 401 kts | 211° |
| 2026-05-08 16:22 | 37.44387 | -5.75280 | 38866 ft | 403 kts | 213° |
| 2026-05-08 16:22 | 37.39842 | -5.79333 | 38865 ft | 397 kts | 223° |
| 2026-05-08 16:23 | 37.35645 | -5.83811 | 38864 ft | 397 kts | 223° |
| 2026-05-08 16:23 | 37.31413 | -5.88305 | 38861 ft | 395 kts | 223° |
| 2026-05-08 16:24 | 37.27266 | -5.92717 | 38854 ft | 392 kts | 223° |
| 2026-05-08 16:24 | 37.23082 | -5.97151 | 38859 ft | 392 kts | 223° |
| 2026-05-08 16:25 | 37.18929 | -6.01552 | 38859 ft | 392 kts | 223° |
| 2026-05-08 16:25 | 37.14755 | -6.05966 | 38860 ft | 392 kts | 223° |
| 2026-05-08 16:26 | 37.10565 | -6.10390 | 38875 ft | 393 kts | 223° |
| 2026-05-08 16:26 | 37.06406 | -6.14775 | 38876 ft | 391 kts | 223° |
| 2026-05-08 16:27 | 37.02249 | -6.19152 | 38874 ft | 389 kts | 223° |
| 2026-05-08 16:27 | 36.98097 | -6.23516 | 38876 ft | 390 kts | 223° |
| 2026-05-08 16:28 | 36.93937 | -6.27882 | 38880 ft | 390 kts | 223° |
| 2026-05-08 16:28 | 36.89798 | -6.32221 | 38882 ft | 390 kts | 223° |
| 2026-05-08 16:29 | 36.85625 | -6.36588 | 38887 ft | 391 kts | 223° |
| 2026-05-08 16:29 | 36.81482 | -6.40918 | 38867 ft | 391 kts | 222° |
| 2026-05-08 16:30 | 36.77319 | -6.45262 | 38878 ft | 388 kts | 222° |
| 2026-05-08 16:30 | 36.73164 | -6.49592 | 38888 ft | 389 kts | 222° |
| 2026-05-08 16:31 | 36.69028 | -6.53895 | 38890 ft | 389 kts | 222° |
| 2026-05-08 16:31 | 36.64854 | -6.58233 | 38893 ft | 389 kts | 222° |
| 2026-05-08 16:32 | 36.60684 | -6.62559 | 38893 ft | 389 kts | 222° |
| 2026-05-08 16:32 | 36.56537 | -6.66855 | 38893 ft | 389 kts | 222° |
| 2026-05-08 16:33 | 36.52369 | -6.71166 | 38882 ft | 387 kts | 222° |
| 2026-05-08 16:33 | 36.48245 | -6.75426 | 38884 ft | 387 kts | 222° |
| 2026-05-08 16:34 | 36.44080 | -6.79720 | 38883 ft | 389 kts | 222° |
| 2026-05-08 16:34 | 36.39905 | -6.84019 | 38889 ft | 390 kts | 222° |
| 2026-05-08 16:35 | 36.35739 | -6.88302 | 38898 ft | 391 kts | 222° |
| 2026-05-08 16:35 | 36.31550 | -6.92602 | 38895 ft | 389 kts | 222° |
| 2026-05-08 16:36 | 36.27388 | -6.96869 | 38883 ft | 388 kts | 222° |
| 2026-05-08 16:36 | 36.23227 | -7.01131 | 38890 ft | 390 kts | 222° |
| 2026-05-08 16:37 | 36.19026 | -7.05424 | 38894 ft | 391 kts | 222° |
| 2026-05-08 16:37 | 36.14855 | -7.09682 | 38893 ft | 390 kts | 222° |
| 2026-05-08 16:38 | 36.10666 | -7.13952 | 38887 ft | 389 kts | 222° |
| 2026-05-08 16:38 | 36.06491 | -7.18202 | 38888 ft | 388 kts | 222° |
| 2026-05-08 16:39 | 36.02323 | -7.22439 | 38887 ft | 388 kts | 221° |
| 2026-05-08 16:39 | 35.98143 | -7.26682 | 38896 ft | 393 kts | 221° |
| 2026-05-08 16:40 | 35.93904 | -7.30977 | 38905 ft | 394 kts | 221° |
| 2026-05-08 16:40 | 35.89669 | -7.35264 | 38905 ft | 393 kts | 221° |
| 2026-05-08 16:41 | 35.85458 | -7.39520 | 38903 ft | 393 kts | 221° |
| 2026-05-08 16:42 | 35.79087 | -7.45912 | 38898 ft | 393 kts | 220° |
| 2026-05-08 16:42 | 35.74860 | -7.50128 | 38899 ft | 393 kts | 221° |
| 2026-05-08 16:43 | 35.70603 | -7.54375 | 38901 ft | 393 kts | 221° |
| 2026-05-08 16:43 | 35.66347 | -7.58608 | 38901 ft | 392 kts | 221° |
| 2026-05-08 16:44 | 35.62110 | -7.62821 | 38900 ft | 395 kts | 220° |
| 2026-05-08 16:44 | 35.57832 | -7.67066 | 38904 ft | 395 kts | 220° |
| 2026-05-08 16:45 | 35.53581 | -7.71281 | 38903 ft | 395 kts | 220° |
| 2026-05-08 16:45 | 35.49299 | -7.75518 | 38886 ft | 394 kts | 220° |
| 2026-05-08 16:46 | 35.44734 | -7.79290 | 38883 ft | 397 kts | 211° |
| 2026-05-08 16:46 | 35.39555 | -7.81707 | 38889 ft | 406 kts | 200° |
| 2026-05-08 16:47 | 35.33868 | -7.82615 | 38890 ft | 419 kts | 188° |
| 2026-05-08 16:47 | 35.28015 | -7.82192 | 38898 ft | 424 kts | 185° |
| 2026-05-08 16:48 | 35.22108 | -7.81710 | 38903 ft | 425 kts | 185° |
| 2026-05-08 16:48 | 35.16183 | -7.81205 | 38907 ft | 427 kts | 185° |
| 2026-05-08 16:49 | 35.10289 | -7.80710 | 38906 ft | 426 kts | 185° |
| 2026-05-08 16:49 | 35.04373 | -7.80215 | 38905 ft | 425 kts | 185° |
| 2026-05-08 16:50 | 34.98459 | -7.79718 | 38876 ft | 424 kts | 185° |
| 2026-05-08 16:50 | 34.92575 | -7.79228 | 38899 ft | 427 kts | 185° |
| 2026-05-08 16:51 | 34.86615 | -7.78727 | 38902 ft | 428 kts | 185° |
| 2026-05-08 16:51 | 34.80709 | -7.78235 | 38904 ft | 428 kts | 185° |
| 2026-05-08 16:52 | 34.74766 | -7.77740 | 38906 ft | 427 kts | 185° |
| 2026-05-08 16:52 | 34.68853 | -7.77310 | 38897 ft | 428 kts | 186° |
| 2026-05-08 16:53 | 34.59919 | -7.76690 | 38901 ft | 429 kts | 186° |
| 2026-05-08 16:53 | 34.53958 | -7.76280 | 38902 ft | 428 kts | 186° |
| 2026-05-08 16:54 | 34.47996 | -7.75863 | 38878 ft | 429 kts | 186° |
| 2026-05-08 16:54 | 34.42061 | -7.75451 | 38899 ft | 430 kts | 186° |
| 2026-05-08 16:55 | 34.36071 | -7.75035 | 38904 ft | 430 kts | 186° |
| 2026-05-08 16:55 | 34.30089 | -7.74620 | 38904 ft | 430 kts | 186° |
| 2026-05-08 16:56 | 34.24144 | -7.74209 | 38901 ft | 430 kts | 186° |
| 2026-05-08 16:56 | 34.18155 | -7.73785 | 38907 ft | 432 kts | 185° |
| 2026-05-08 16:57 | 34.12143 | -7.73220 | 38913 ft | 433 kts | 185° |
| 2026-05-08 16:57 | 34.06156 | -7.72674 | 38913 ft | 433 kts | 185° |
| 2026-05-08 16:58 | 34.01161 | -7.72207 | 38910 ft | 433 kts | 185° |
| 2026-05-08 16:58 | 33.95151 | -7.71656 | 38903 ft | 432 kts | 185° |
| 2026-05-08 16:59 | 33.89148 | -7.71104 | 38902 ft | 435 kts | 185° |
| 2026-05-08 16:59 | 33.83102 | -7.70546 | 38900 ft | 434 kts | 185° |
| 2026-05-08 17:00 | 33.77097 | -7.69995 | 38897 ft | 434 kts | 185° |
| 2026-05-08 17:00 | 33.71055 | -7.69440 | 38865 ft | 433 kts | 185° |
| 2026-05-08 17:01 | 33.65059 | -7.68894 | 38921 ft | 436 kts | 185° |
| 2026-05-08 17:01 | 33.59015 | -7.68340 | 38921 ft | 436 kts | 185° |
| 2026-05-08 17:02 | 33.53082 | -7.68757 | 38911 ft | 418 kts | 198° |
| 2026-05-08 17:02 | 33.47649 | -7.70795 | 38903 ft | 406 kts | 210° |
| 2026-05-08 17:03 | 33.42709 | -7.73981 | 38899 ft | 403 kts | 214° |
| 2026-05-08 17:03 | 33.37755 | -7.77250 | 38907 ft | 408 kts | 214° |
| 2026-05-08 17:04 | 33.32820 | -7.80523 | 38910 ft | 407 kts | 214° |
| 2026-05-08 17:04 | 33.27855 | -7.83804 | 38904 ft | 406 kts | 214° |
| 2026-05-08 17:05 | 33.22931 | -7.87057 | 38903 ft | 406 kts | 214° |
| 2026-05-08 17:05 | 33.17984 | -7.90320 | 38902 ft | 405 kts | 214° |
| 2026-05-08 17:06 | 33.13037 | -7.93579 | 38894 ft | 405 kts | 214° |
| 2026-05-08 17:06 | 33.08119 | -7.96815 | 38888 ft | 404 kts | 214° |
| 2026-05-08 17:07 | 33.03181 | -8.00059 | 38892 ft | 404 kts | 214° |
| 2026-05-08 17:07 | 32.98274 | -8.03279 | 38889 ft | 404 kts | 214° |
| 2026-05-08 17:08 | 32.93136 | -8.06097 | 38886 ft | 413 kts | 204° |
| 2026-05-08 17:08 | 32.87466 | -8.07469 | 38903 ft | 423 kts | 195° |
| 2026-05-08 17:09 | 32.81595 | -8.08438 | 38887 ft | 426 kts | 196° |
| 2026-05-08 17:09 | 32.75718 | -8.09404 | 38897 ft | 425 kts | 195° |
| 2026-05-08 17:10 | 32.69885 | -8.10359 | 38890 ft | 425 kts | 196° |
| 2026-05-08 17:10 | 32.64003 | -8.11324 | 38884 ft | 425 kts | 195° |
| 2026-05-08 17:11 | 32.58126 | -8.12284 | 38890 ft | 427 kts | 196° |
| 2026-05-08 17:11 | 32.52238 | -8.13245 | 38889 ft | 428 kts | 195° |
| 2026-05-08 17:12 | 32.46356 | -8.14201 | 38891 ft | 426 kts | 196° |
| 2026-05-08 17:12 | 32.40488 | -8.15163 | 38894 ft | 428 kts | 196° |
| 2026-05-08 17:13 | 32.34579 | -8.16118 | 38860 ft | 428 kts | 196° |
| 2026-05-08 17:13 | 32.28657 | -8.17085 | 38887 ft | 430 kts | 196° |
| 2026-05-08 17:14 | 32.22761 | -8.18037 | 38885 ft | 430 kts | 196° |
| 2026-05-08 17:14 | 32.16822 | -8.19001 | 38885 ft | 430 kts | 196° |
| 2026-05-08 17:15 | 32.10915 | -8.20037 | 38895 ft | 426 kts | 199° |
| 2026-05-08 17:15 | 32.05097 | -8.21344 | 38898 ft | 429 kts | 198° |
| 2026-05-08 17:16 | 31.99203 | -8.22639 | 38898 ft | 431 kts | 198° |
| 2026-05-08 17:16 | 31.93307 | -8.23948 | 38899 ft | 430 kts | 198° |
| 2026-05-08 17:17 | 31.87421 | -8.25246 | 38896 ft | 430 kts | 198° |
| 2026-05-08 17:17 | 31.81559 | -8.26541 | 38898 ft | 431 kts | 198° |
| 2026-05-08 17:18 | 31.75674 | -8.27837 | 38903 ft | 432 kts | 198° |
| 2026-05-08 17:18 | 31.69744 | -8.29141 | 38888 ft | 431 kts | 198° |
| 2026-05-08 17:19 | 31.63845 | -8.30437 | 38881 ft | 430 kts | 198° |
| 2026-05-08 17:19 | 31.58005 | -8.31720 | 38882 ft | 429 kts | 198° |
| 2026-05-08 17:20 | 31.52122 | -8.33010 | 38847 ft | 429 kts | 198° |
| 2026-05-08 17:20 | 31.46237 | -8.34300 | 38903 ft | 434 kts | 198° |
| 2026-05-08 17:21 | 31.40252 | -8.35606 | 38909 ft | 437 kts | 198° |
| 2026-05-08 17:21 | 31.34306 | -8.36904 | 38914 ft | 435 kts | 198° |
| 2026-05-08 17:22 | 31.28348 | -8.38204 | 38916 ft | 435 kts | 198° |
| 2026-05-08 17:22 | 31.22387 | -8.39502 | 38926 ft | 436 kts | 198° |
| 2026-05-08 17:23 | 31.16400 | -8.40806 | 38928 ft | 438 kts | 198° |
| 2026-05-08 17:23 | 31.10432 | -8.42102 | 38941 ft | 438 kts | 198° |
| 2026-05-08 17:24 | 31.04425 | -8.43404 | 38941 ft | 438 kts | 198° |
| 2026-05-08 17:24 | 30.98444 | -8.44701 | 38943 ft | 438 kts | 198° |
| 2026-05-08 17:25 | 30.92446 | -8.45998 | 38951 ft | 438 kts | 198° |
| 2026-05-08 17:25 | 30.86469 | -8.47292 | 38930 ft | 437 kts | 198° |
| 2026-05-08 17:26 | 30.80486 | -8.48580 | 38959 ft | 437 kts | 198° |
| 2026-05-08 17:26 | 30.74492 | -8.49875 | 38955 ft | 438 kts | 198° |
| 2026-05-08 17:27 | 30.68504 | -8.51163 | 38958 ft | 440 kts | 198° |
| 2026-05-08 17:27 | 30.62473 | -8.52460 | 38952 ft | 441 kts | 198° |
| 2026-05-08 17:28 | 30.56474 | -8.53747 | 38952 ft | 440 kts | 198° |
| 2026-05-08 17:28 | 30.50451 | -8.55040 | 38953 ft | 439 kts | 198° |
| 2026-05-08 17:29 | 30.44455 | -8.56324 | 38949 ft | 438 kts | 198° |
| 2026-05-08 17:29 | 30.38443 | -8.57611 | 38954 ft | 439 kts | 198° |
| 2026-05-08 17:30 | 30.32431 | -8.58895 | 38953 ft | 439 kts | 198° |
| 2026-05-08 17:30 | 30.26465 | -8.60168 | 38951 ft | 438 kts | 198° |
| 2026-05-08 17:31 | 30.20451 | -8.61452 | 38958 ft | 440 kts | 198° |
| 2026-05-08 17:31 | 30.14456 | -8.62727 | 38961 ft | 440 kts | 198° |
| 2026-05-08 17:32 | 30.08416 | -8.64011 | 38943 ft | 439 kts | 198° |
| 2026-05-08 17:32 | 30.02432 | -8.65283 | 38955 ft | 442 kts | 198° |
| 2026-05-08 17:33 | 29.96387 | -8.66564 | 38946 ft | 440 kts | 198° |
| 2026-05-08 17:33 | 29.90356 | -8.67843 | 38944 ft | 440 kts | 198° |
| 2026-05-08 17:34 | 29.84318 | -8.69120 | 38928 ft | 441 kts | 198° |
| 2026-05-08 17:34 | 29.78318 | -8.70387 | 38927 ft | 441 kts | 198° |
| 2026-05-08 17:35 | 29.72254 | -8.71668 | 38907 ft | 442 kts | 198° |
| 2026-05-08 17:35 | 29.66219 | -8.72939 | 38910 ft | 441 kts | 199° |
| 2026-05-08 17:36 | 29.60202 | -8.74206 | 38882 ft | 440 kts | 199° |
| 2026-05-08 17:36 | 29.54174 | -8.75474 | 38877 ft | 439 kts | 199° |
| 2026-05-08 17:37 | 29.48144 | -8.76742 | 38862 ft | 441 kts | 198° |
| 2026-05-08 17:37 | 29.42114 | -8.78006 | 38848 ft | 443 kts | 198° |
| 2026-05-08 17:38 | 29.36035 | -8.79279 | 38870 ft | 443 kts | 199° |
| 2026-05-08 17:38 | 29.29972 | -8.80548 | 38854 ft | 442 kts | 199° |
| 2026-05-08 17:39 | 29.23920 | -8.81813 | 38818 ft | 442 kts | 199° |
| 2026-05-08 17:39 | 29.17888 | -8.83074 | 38847 ft | 444 kts | 199° |
| 2026-05-08 17:40 | 29.11795 | -8.84342 | 38847 ft | 444 kts | 199° |
| 2026-05-08 17:40 | 29.05702 | -8.85612 | 38836 ft | 444 kts | 199° |
| 2026-05-08 17:41 | 28.99660 | -8.86869 | 38836 ft | 443 kts | 199° |
| 2026-05-08 17:41 | 28.93582 | -8.88132 | 38821 ft | 442 kts | 199° |
| 2026-05-08 17:42 | 28.87473 | -8.89402 | 38833 ft | 448 kts | 199° |
| 2026-05-08 17:42 | 28.81365 | -8.90663 | 38843 ft | 447 kts | 199° |
| 2026-05-08 17:43 | 28.75241 | -8.91934 | 38838 ft | 445 kts | 199° |
| 2026-05-08 17:43 | 28.69186 | -8.93185 | 38837 ft | 444 kts | 199° |
| 2026-05-08 17:44 | 28.63106 | -8.94442 | 38856 ft | 445 kts | 199° |
| 2026-05-08 17:44 | 28.56960 | -8.95712 | 38869 ft | 450 kts | 199° |
| 2026-05-08 17:45 | 28.50792 | -8.96978 | 38867 ft | 449 kts | 199° |
| 2026-05-08 17:45 | 28.44688 | -8.98237 | 38872 ft | 448 kts | 199° |
| 2026-05-08 17:46 | 28.38539 | -8.99500 | 38871 ft | 448 kts | 199° |
| 2026-05-08 17:46 | 28.32423 | -9.00757 | 38876 ft | 449 kts | 199° |
| 2026-05-08 17:47 | 28.26237 | -9.02025 | 38885 ft | 451 kts | 199° |
| 2026-05-08 17:47 | 28.21096 | -9.03077 | 38887 ft | 450 kts | 199° |
| 2026-05-08 17:48 | 28.13924 | -9.04546 | 38885 ft | 450 kts | 199° |
| 2026-05-08 17:48 | 28.07757 | -9.05806 | 38890 ft | 450 kts | 199° |
| 2026-05-08 17:49 | 28.02624 | -9.06855 | 38887 ft | 453 kts | 199° |
| 2026-05-08 17:49 | 27.96382 | -9.08127 | 38891 ft | 454 kts | 199° |
| 2026-05-08 17:50 | 27.90181 | -9.09389 | 38900 ft | 453 kts | 199° |
| 2026-05-08 17:50 | 27.83975 | -9.10652 | 38898 ft | 451 kts | 199° |
| 2026-05-08 17:51 | 27.77843 | -9.11898 | 38894 ft | 450 kts | 199° |
| 2026-05-08 17:51 | 27.71502 | -9.12491 | 38884 ft | 471 kts | 186° |
| 2026-05-08 17:52 | 27.68189 | -9.12011 | 38892 ft | 485 kts | 177° |
| 2026-05-08 17:52 | 27.64892 | -9.10958 | 38885 ft | 498 kts | 168° |
| 2026-05-08 17:52 | 27.58751 | -9.07130 | 38877 ft | 519 kts | 150° |
| 2026-05-08 17:53 | 27.55919 | -9.04591 | 38894 ft | 519 kts | 149° |
| 2026-05-08 17:53 | 27.50248 | -8.99543 | 38901 ft | 518 kts | 150° |
| 2026-05-08 17:54 | 27.44602 | -8.94537 | 38899 ft | 519 kts | 150° |
| 2026-05-08 17:54 | 27.38923 | -8.89492 | 38894 ft | 519 kts | 150° |
| 2026-05-08 17:55 | 27.33221 | -8.84448 | 38894 ft | 520 kts | 150° |
| 2026-05-08 17:55 | 27.27562 | -8.79437 | 38896 ft | 520 kts | 150° |
| 2026-05-08 17:56 | 27.21863 | -8.74406 | 38895 ft | 520 kts | 150° |
| 2026-05-08 17:56 | 27.16203 | -8.69410 | 38877 ft | 519 kts | 149° |
| 2026-05-08 17:57 | 27.10533 | -8.64416 | 38873 ft | 516 kts | 150° |
| 2026-05-08 17:57 | 27.04860 | -8.59426 | 38872 ft | 516 kts | 150° |
| 2026-05-08 17:58 | 26.99198 | -8.54449 | 38871 ft | 517 kts | 150° |
| 2026-05-08 17:58 | 26.93561 | -8.49503 | 38872 ft | 517 kts | 150° |
| 2026-05-08 17:59 | 26.87894 | -8.44536 | 38869 ft | 517 kts | 149° |
| 2026-05-08 17:59 | 26.82202 | -8.39556 | 38876 ft | 520 kts | 149° |
| 2026-05-08 18:00 | 26.76506 | -8.34573 | 38875 ft | 518 kts | 149° |
| 2026-05-08 18:00 | 26.68054 | -8.27200 | 38869 ft | 514 kts | 150° |
| 2026-05-08 18:01 | 26.62400 | -8.22274 | 38840 ft | 514 kts | 149° |
| 2026-05-08 18:01 | 26.56776 | -8.17381 | 38874 ft | 517 kts | 150° |
| 2026-05-08 18:02 | 26.52051 | -8.13272 | 38877 ft | 517 kts | 149° |
| 2026-05-08 18:02 | 26.45406 | -8.07505 | 38879 ft | 517 kts | 150° |
| 2026-05-08 18:03 | 26.39719 | -8.02575 | 38884 ft | 517 kts | 150° |
| 2026-05-08 18:03 | 26.34062 | -7.97678 | 38848 ft | 517 kts | 149° |
| 2026-05-08 18:04 | 26.28366 | -7.92754 | 38863 ft | 518 kts | 149° |
| 2026-05-08 18:04 | 26.22685 | -7.87847 | 38868 ft | 519 kts | 149° |
| 2026-05-08 18:05 | 26.16976 | -7.82922 | 38869 ft | 517 kts | 149° |
| 2026-05-08 18:05 | 26.11293 | -7.78029 | 38867 ft | 516 kts | 149° |
| 2026-05-08 18:06 | 26.05651 | -7.73175 | 38870 ft | 514 kts | 149° |
| 2026-05-08 18:06 | 25.99965 | -7.68293 | 38876 ft | 518 kts | 149° |
| 2026-05-08 18:07 | 25.94249 | -7.63385 | 38882 ft | 519 kts | 149° |
| 2026-05-08 18:07 | 25.88533 | -7.58487 | 38872 ft | 518 kts | 149° |
| 2026-05-08 18:08 | 25.82881 | -7.53649 | 38867 ft | 515 kts | 149° |
| 2026-05-08 18:08 | 25.77200 | -7.48793 | 38868 ft | 515 kts | 150° |
| 2026-05-08 18:09 | 25.71501 | -7.43928 | 38872 ft | 517 kts | 149° |
| 2026-05-08 18:09 | 25.65813 | -7.39078 | 38878 ft | 519 kts | 149° |
| 2026-05-08 18:10 | 25.60086 | -7.34199 | 38878 ft | 517 kts | 149° |
| 2026-05-08 18:10 | 25.54397 | -7.29360 | 38872 ft | 516 kts | 149° |
| 2026-05-08 18:11 | 25.48681 | -7.24505 | 38869 ft | 515 kts | 149° |
| 2026-05-08 18:11 | 25.42989 | -7.19676 | 38862 ft | 515 kts | 149° |
| 2026-05-08 18:12 | 25.37304 | -7.14859 | 38866 ft | 518 kts | 149° |
| 2026-05-08 18:12 | 25.31572 | -7.10007 | 38854 ft | 519 kts | 149° |
| 2026-05-08 18:13 | 25.25832 | -7.05155 | 38855 ft | 518 kts | 149° |
| 2026-05-08 18:13 | 25.20140 | -7.00350 | 38853 ft | 517 kts | 149° |
| 2026-05-08 18:14 | 25.14410 | -6.95518 | 38854 ft | 517 kts | 149° |
| 2026-05-08 18:14 | 25.08679 | -6.90692 | 38857 ft | 518 kts | 149° |
| 2026-05-08 18:15 | 25.02927 | -6.85853 | 38858 ft | 519 kts | 149° |
| 2026-05-08 18:15 | 24.97199 | -6.81040 | 38857 ft | 520 kts | 149° |
| 2026-05-08 18:16 | 24.91453 | -6.76217 | 38852 ft | 520 kts | 149° |
| 2026-05-08 18:16 | 24.85693 | -6.71389 | 38831 ft | 518 kts | 149° |
| 2026-05-08 18:17 | 24.79969 | -6.66597 | 38832 ft | 516 kts | 149° |
| 2026-05-08 18:17 | 24.74247 | -6.61813 | 38836 ft | 516 kts | 149° |
| 2026-05-08 18:18 | 24.68563 | -6.57066 | 38831 ft | 516 kts | 149° |
| 2026-05-08 18:18 | 24.62829 | -6.52282 | 38827 ft | 517 kts | 149° |
| 2026-05-08 18:19 | 24.57084 | -6.47496 | 38832 ft | 517 kts | 149° |
| 2026-05-08 18:19 | 24.51352 | -6.42724 | 38831 ft | 516 kts | 149° |
| 2026-05-08 18:20 | 24.45663 | -6.37995 | 38823 ft | 514 kts | 149° |
| 2026-05-08 18:20 | 24.39946 | -6.33249 | 38825 ft | 515 kts | 149° |
| 2026-05-08 18:21 | 24.34219 | -6.28500 | 38829 ft | 516 kts | 149° |
| 2026-05-08 18:21 | 24.28492 | -6.23756 | 38833 ft | 518 kts | 149° |
| 2026-05-08 18:22 | 24.22737 | -6.18992 | 38822 ft | 515 kts | 149° |
| 2026-05-08 18:22 | 24.17062 | -6.14303 | 38820 ft | 513 kts | 149° |
| 2026-05-08 18:23 | 24.11355 | -6.09592 | 38817 ft | 513 kts | 149° |
| 2026-05-08 18:23 | 24.05653 | -6.04890 | 38826 ft | 514 kts | 150° |
| 2026-05-08 18:24 | 23.99957 | -6.00199 | 38824 ft | 514 kts | 150° |
| 2026-05-08 18:24 | 23.94226 | -5.95482 | 38811 ft | 514 kts | 150° |
| 2026-05-08 18:25 | 23.88493 | -5.90773 | 38820 ft | 515 kts | 150° |
| 2026-05-08 18:25 | 23.82782 | -5.86084 | 38824 ft | 515 kts | 150° |
| 2026-05-08 18:26 | 23.77043 | -5.81379 | 38818 ft | 515 kts | 150° |
| 2026-05-08 18:26 | 23.71302 | -5.76677 | 38832 ft | 515 kts | 150° |
| 2026-05-08 18:27 | 23.66527 | -5.72771 | 38832 ft | 515 kts | 150° |
| 2026-05-08 18:27 | 23.59818 | -5.67287 | 38823 ft | 514 kts | 150° |
| 2026-05-08 18:28 | 23.54096 | -5.62617 | 38816 ft | 514 kts | 150° |
| 2026-05-08 18:28 | 23.48402 | -5.57974 | 38814 ft | 514 kts | 150° |
| 2026-05-08 18:29 | 23.42672 | -5.53308 | 38813 ft | 514 kts | 150° |
| 2026-05-08 18:29 | 23.36950 | -5.48653 | 38814 ft | 513 kts | 150° |
| 2026-05-08 18:30 | 23.31231 | -5.44004 | 38827 ft | 512 kts | 151° |
| 2026-05-08 18:30 | 23.25517 | -5.39370 | 38830 ft | 516 kts | 151° |
| 2026-05-08 18:31 | 23.19742 | -5.34683 | 38832 ft | 516 kts | 151° |
| 2026-05-08 18:31 | 23.13961 | -5.30003 | 38823 ft | 518 kts | 151° |
| 2026-05-08 18:32 | 23.08198 | -5.25339 | 38827 ft | 519 kts | 151° |
| 2026-05-08 18:32 | 23.02414 | -5.20664 | 38825 ft | 517 kts | 151° |
| 2026-05-08 18:33 | 22.96613 | -5.15984 | 38820 ft | 520 kts | 152° |
| 2026-05-08 18:33 | 22.90835 | -5.11322 | 38821 ft | 521 kts | 152° |
| 2026-05-08 18:34 | 22.85018 | -5.06637 | 38819 ft | 521 kts | 153° |
| 2026-05-08 18:34 | 22.79190 | -5.01947 | 38820 ft | 520 kts | 152° |
| 2026-05-08 18:35 | 22.73396 | -4.97290 | 38821 ft | 520 kts | 153° |
| 2026-05-08 18:35 | 22.67568 | -4.92610 | 38824 ft | 519 kts | 153° |
| 2026-05-08 18:36 | 22.61796 | -4.87982 | 38821 ft | 519 kts | 153° |
| 2026-05-08 18:36 | 22.56962 | -4.84108 | 38823 ft | 519 kts | 153° |
| 2026-05-08 18:37 | 22.51145 | -4.79452 | 38822 ft | 520 kts | 153° |
| 2026-05-08 18:37 | 22.45331 | -4.74803 | 38823 ft | 520 kts | 153° |
| 2026-05-08 18:38 | 22.39501 | -4.70146 | 38825 ft | 520 kts | 153° |
| 2026-05-08 18:38 | 22.33753 | -4.65554 | 38811 ft | 512 kts | 153° |
| 2026-05-08 18:39 | 22.28016 | -4.60990 | 38816 ft | 511 kts | 153° |
| 2026-05-08 18:39 | 22.22273 | -4.56413 | 38815 ft | 512 kts | 153° |
| 2026-05-08 18:40 | 22.16537 | -4.51853 | 38824 ft | 515 kts | 153° |
| 2026-05-08 18:40 | 22.10771 | -4.47270 | 38826 ft | 515 kts | 153° |
| 2026-05-08 18:41 | 22.05003 | -4.42692 | 38829 ft | 515 kts | 153° |
| 2026-05-08 18:41 | 21.99234 | -4.38119 | 38828 ft | 517 kts | 153° |
| 2026-05-08 18:42 | 21.93427 | -4.33517 | 38830 ft | 517 kts | 153° |
| 2026-05-08 18:42 | 21.87623 | -4.28926 | 38832 ft | 517 kts | 153° |
| 2026-05-08 18:43 | 21.81862 | -4.24370 | 38829 ft | 516 kts | 153° |
| 2026-05-08 18:43 | 21.76063 | -4.19792 | 38830 ft | 516 kts | 153° |
| 2026-05-08 18:44 | 21.70272 | -4.15223 | 38815 ft | 515 kts | 153° |
| 2026-05-08 18:44 | 21.64490 | -4.10667 | 38814 ft | 515 kts | 153° |
| 2026-05-08 18:45 | 21.58746 | -4.06144 | 38815 ft | 515 kts | 153° |
| 2026-05-08 18:45 | 21.52960 | -4.01594 | 38815 ft | 515 kts | 153° |
| 2026-05-08 18:46 | 21.47179 | -3.97052 | 38817 ft | 515 kts | 153° |
| 2026-05-08 18:46 | 21.41387 | -3.92506 | 38817 ft | 515 kts | 153° |
| 2026-05-08 18:47 | 21.35612 | -3.87978 | 38822 ft | 515 kts | 153° |
| 2026-05-08 18:47 | 21.29814 | -3.83437 | 38820 ft | 515 kts | 153° |
| 2026-05-08 18:48 | 21.24039 | -3.78919 | 38821 ft | 515 kts | 153° |
| 2026-05-08 18:48 | 21.18243 | -3.74388 | 38820 ft | 514 kts | 153° |
| 2026-05-08 18:49 | 21.12496 | -3.69901 | 38820 ft | 513 kts | 153° |
| 2026-05-08 18:49 | 21.06732 | -3.65403 | 38816 ft | 508 kts | 152° |
| 2026-05-08 18:50 | 21.01017 | -3.60952 | 38819 ft | 508 kts | 153° |
| 2026-05-08 18:50 | 20.95320 | -3.56517 | 38820 ft | 510 kts | 152° |
| 2026-05-08 18:51 | 20.89558 | -3.52033 | 38827 ft | 511 kts | 153° |
| 2026-05-08 18:51 | 20.83802 | -3.47561 | 38828 ft | 509 kts | 153° |
| 2026-05-08 18:52 | 20.78104 | -3.43138 | 38818 ft | 508 kts | 153° |
| 2026-05-08 18:52 | 20.72404 | -3.38714 | 38828 ft | 502 kts | 152° |
| 2026-05-08 18:53 | 20.66741 | -3.34332 | 38828 ft | 503 kts | 152° |
| 2026-05-08 18:53 | 20.61076 | -3.29944 | 38830 ft | 504 kts | 152° |
| 2026-05-08 18:54 | 20.55384 | -3.25543 | 38830 ft | 505 kts | 152° |
| 2026-05-08 18:54 | 20.49688 | -3.21141 | 38836 ft | 506 kts | 152° |
| 2026-05-08 18:55 | 20.41136 | -3.14541 | 38815 ft | 503 kts | 152° |
| 2026-05-08 18:56 | 20.35465 | -3.10169 | 38817 ft | 501 kts | 152° |
| 2026-05-08 18:56 | 20.29849 | -3.05846 | 38815 ft | 502 kts | 152° |
| 2026-05-08 18:57 | 20.24173 | -3.01478 | 38821 ft | 503 kts | 152° |
| 2026-05-08 18:57 | 20.18490 | -2.97110 | 38825 ft | 504 kts | 152° |
| 2026-05-08 18:58 | 20.12801 | -2.92740 | 38828 ft | 505 kts | 152° |
| 2026-05-08 18:58 | 20.07138 | -2.88393 | 38815 ft | 502 kts | 151° |
| 2026-05-08 18:59 | 20.01455 | -2.84038 | 38813 ft | 501 kts | 151° |
| 2026-05-08 18:59 | 19.95836 | -2.79735 | 38813 ft | 500 kts | 151° |
| 2026-05-08 19:00 | 19.90174 | -2.75401 | 38821 ft | 500 kts | 151° |
| 2026-05-08 19:00 | 19.84507 | -2.71070 | 38827 ft | 501 kts | 151° |
| 2026-05-08 19:01 | 19.78867 | -2.66761 | 38824 ft | 502 kts | 151° |
| 2026-05-08 19:01 | 19.73158 | -2.62406 | 38820 ft | 505 kts | 150° |
| 2026-05-08 19:02 | 19.67482 | -2.58076 | 38819 ft | 505 kts | 150° |
| 2026-05-08 19:02 | 19.61758 | -2.53717 | 38817 ft | 505 kts | 151° |
| 2026-05-08 19:03 | 19.56075 | -2.49390 | 38818 ft | 504 kts | 151° |
| 2026-05-08 19:03 | 19.50369 | -2.45051 | 38814 ft | 504 kts | 151° |
| 2026-05-08 19:04 | 19.44658 | -2.40712 | 38811 ft | 504 kts | 151° |
| 2026-05-08 19:04 | 19.39009 | -2.36424 | 38811 ft | 502 kts | 150° |
| 2026-05-08 19:05 | 19.33331 | -2.32118 | 38812 ft | 501 kts | 150° |
| 2026-05-08 19:05 | 19.27644 | -2.27809 | 38815 ft | 503 kts | 150° |
| 2026-05-08 19:06 | 19.21912 | -2.23470 | 38819 ft | 508 kts | 150° |
| 2026-05-08 19:06 | 19.16194 | -2.19142 | 38820 ft | 507 kts | 150° |
| 2026-05-08 19:07 | 19.10450 | -2.14803 | 38805 ft | 506 kts | 150° |
| 2026-05-08 19:07 | 19.04679 | -2.10446 | 38807 ft | 511 kts | 149° |
| 2026-05-08 19:08 | 18.98924 | -2.06101 | 38808 ft | 511 kts | 149° |
| 2026-05-08 19:08 | 18.93140 | -2.01743 | 38801 ft | 509 kts | 150° |
| 2026-05-08 19:09 | 18.87361 | -1.97389 | 38798 ft | 509 kts | 150° |
| 2026-05-08 19:09 | 18.81634 | -1.93080 | 38791 ft | 508 kts | 150° |
| 2026-05-08 19:10 | 18.75861 | -1.88741 | 38788 ft | 510 kts | 149° |
| 2026-05-08 19:10 | 18.70044 | -1.84372 | 38797 ft | 519 kts | 149° |
| 2026-05-08 19:11 | 18.64122 | -1.79923 | 38802 ft | 521 kts | 149° |
| 2026-05-08 19:11 | 18.58213 | -1.75493 | 38802 ft | 520 kts | 149° |
| 2026-05-08 19:12 | 18.52328 | -1.71085 | 38793 ft | 518 kts | 149° |
| 2026-05-08 19:12 | 18.46488 | -1.66716 | 38788 ft | 517 kts | 149° |
| 2026-05-08 19:13 | 18.40599 | -1.62314 | 38780 ft | 519 kts | 149° |
| 2026-05-08 19:13 | 18.34664 | -1.57883 | 38799 ft | 525 kts | 149° |
| 2026-05-08 19:14 | 18.28707 | -1.53433 | 38795 ft | 523 kts | 149° |
| 2026-05-08 19:14 | 18.22801 | -1.49033 | 38795 ft | 523 kts | 149° |
| 2026-05-08 19:15 | 18.16858 | -1.44604 | 38796 ft | 523 kts | 149° |
| 2026-05-08 19:15 | 18.10933 | -1.40193 | 38788 ft | 523 kts | 149° |
| 2026-05-08 19:16 | 18.04989 | -1.35769 | 38787 ft | 523 kts | 149° |
| 2026-05-08 19:16 | 17.99037 | -1.31344 | 38785 ft | 523 kts | 149° |
| 2026-05-08 19:17 | 17.93131 | -1.26957 | 38785 ft | 523 kts | 149° |
| 2026-05-08 19:17 | 17.87177 | -1.22538 | 38777 ft | 523 kts | 149° |
| 2026-05-08 19:18 | 17.81249 | -1.18141 | 38777 ft | 523 kts | 149° |
| 2026-05-08 19:18 | 17.75312 | -1.13743 | 38769 ft | 523 kts | 149° |
| 2026-05-08 19:19 | 17.69361 | -1.09336 | 38770 ft | 523 kts | 149° |
| 2026-05-08 19:19 | 17.63430 | -1.04949 | 38769 ft | 524 kts | 149° |
| 2026-05-08 19:20 | 17.57469 | -1.00543 | 38768 ft | 524 kts | 149° |
| 2026-05-08 19:20 | 17.51495 | -0.96131 | 38771 ft | 525 kts | 149° |
| 2026-05-08 19:21 | 17.45522 | -0.91724 | 38769 ft | 525 kts | 149° |
| 2026-05-08 19:21 | 17.39531 | -0.87306 | 38764 ft | 525 kts | 149° |
| 2026-05-08 19:22 | 17.33556 | -0.82904 | 38764 ft | 525 kts | 149° |
| 2026-05-08 19:22 | 17.27606 | -0.78524 | 38763 ft | 525 kts | 149° |
| 2026-05-08 19:23 | 17.21623 | -0.74123 | 38760 ft | 525 kts | 149° |
| 2026-05-08 19:23 | 17.15670 | -0.69748 | 38760 ft | 525 kts | 149° |
| 2026-05-08 19:24 | 17.09681 | -0.65350 | 38757 ft | 525 kts | 149° |
| 2026-05-08 19:24 | 17.04710 | -0.61702 | 38744 ft | 525 kts | 149° |
| 2026-05-08 19:25 | 16.98727 | -0.57314 | 38765 ft | 523 kts | 149° |
| 2026-05-08 19:25 | 16.92802 | -0.52973 | 38751 ft | 522 kts | 149° |
| 2026-05-08 19:26 | 16.86853 | -0.48619 | 38749 ft | 522 kts | 149° |
| 2026-05-08 19:26 | 16.80896 | -0.44260 | 38759 ft | 523 kts | 149° |
| 2026-05-08 19:27 | 16.74917 | -0.39889 | 38771 ft | 524 kts | 149° |
| 2026-05-08 19:27 | 16.68978 | -0.35552 | 38763 ft | 523 kts | 148° |
| 2026-05-08 19:28 | 16.63005 | -0.31192 | 38762 ft | 521 kts | 148° |
| 2026-05-08 19:28 | 16.57087 | -0.26877 | 38766 ft | 521 kts | 148° |
| 2026-05-08 19:29 | 16.51136 | -0.22539 | 38757 ft | 521 kts | 148° |
| 2026-05-08 19:29 | 16.45191 | -0.18211 | 38766 ft | 521 kts | 148° |
| 2026-05-08 19:30 | 16.39248 | -0.13887 | 38768 ft | 521 kts | 148° |
| 2026-05-08 19:30 | 16.33286 | -0.09553 | 38760 ft | 520 kts | 148° |
| 2026-05-08 19:31 | 16.27379 | -0.05339 | 38744 ft | 514 kts | 154° |
| 2026-05-08 19:31 | 16.24161 | -0.03780 | 38748 ft | 509 kts | 165° |
| 2026-05-08 19:31 | 16.20743 | -0.02867 | 38764 ft | 503 kts | 175° |
| 2026-05-08 19:32 | 16.13807 | -0.02590 | 38784 ft | 496 kts | 184° |
| 2026-05-08 19:32 | 16.06938 | -0.02564 | 38786 ft | 497 kts | 184° |
| 2026-05-08 19:33 | 16.00014 | -0.02513 | 38779 ft | 497 kts | 184° |
| 2026-05-08 19:33 | 15.93101 | -0.02484 | 38767 ft | 494 kts | 183° |
| 2026-05-08 19:34 | 15.86218 | -0.02440 | 38778 ft | 494 kts | 184° |
| 2026-05-08 19:34 | 15.79384 | -0.02407 | 38778 ft | 494 kts | 183° |
| 2026-05-08 19:35 | 15.72503 | -0.02366 | 38781 ft | 494 kts | 183° |
| 2026-05-08 19:35 | 15.65628 | -0.02330 | 38779 ft | 494 kts | 183° |
| 2026-05-08 19:36 | 15.58763 | -0.02291 | 38769 ft | 490 kts | 183° |
| 2026-05-08 19:36 | 15.51938 | -0.02254 | 38768 ft | 490 kts | 183° |
| 2026-05-08 19:37 | 15.45140 | -0.02217 | 38767 ft | 491 kts | 183° |
| 2026-05-08 19:37 | 15.38299 | -0.02179 | 38776 ft | 492 kts | 183° |
| 2026-05-08 19:38 | 15.31427 | -0.02142 | 38769 ft | 492 kts | 183° |
| 2026-05-08 19:38 | 15.24621 | -0.02104 | 38759 ft | 488 kts | 182° |
| 2026-05-08 19:39 | 15.17828 | -0.02067 | 38758 ft | 485 kts | 182° |
| 2026-05-08 19:39 | 15.11054 | -0.02030 | 38761 ft | 486 kts | 182° |
| 2026-05-08 19:40 | 15.04316 | -0.01993 | 38759 ft | 487 kts | 182° |
| 2026-05-08 19:40 | 14.97540 | -0.01956 | 38764 ft | 487 kts | 182° |
| 2026-05-08 19:41 | 14.90740 | -0.01919 | 38765 ft | 488 kts | 182° |
| 2026-05-08 19:41 | 14.83976 | -0.01882 | 38770 ft | 490 kts | 182° |
| 2026-05-08 19:42 | 14.77156 | -0.01844 | 38767 ft | 489 kts | 182° |
| 2026-05-08 19:42 | 14.70357 | -0.01807 | 38764 ft | 487 kts | 182° |
| 2026-05-08 19:43 | 14.63578 | -0.01770 | 38764 ft | 486 kts | 182° |
| 2026-05-08 19:43 | 14.56856 | -0.01734 | 38769 ft | 486 kts | 182° |
| 2026-05-08 19:44 | 14.50055 | -0.01697 | 38781 ft | 488 kts | 182° |
| 2026-05-08 19:44 | 14.43287 | -0.01660 | 38787 ft | 489 kts | 182° |
| 2026-05-08 19:45 | 14.36467 | -0.01623 | 38789 ft | 489 kts | 182° |
| 2026-05-08 19:45 | 14.29680 | -0.01586 | 38793 ft | 488 kts | 182° |
| 2026-05-08 19:46 | 14.22887 | -0.01549 | 38789 ft | 487 kts | 182° |
| 2026-05-08 19:46 | 14.12732 | -0.01494 | 38793 ft | 486 kts | 182° |
| 2026-05-08 19:47 | 14.05984 | -0.01457 | 38801 ft | 488 kts | 182° |
| 2026-05-08 19:47 | 13.99174 | -0.01420 | 38805 ft | 489 kts | 182° |
| 2026-05-08 19:48 | 13.92433 | -0.00633 | 38801 ft | 497 kts | 166° |
| 2026-05-08 19:48 | 13.86061 | 0.02272 | 38818 ft | 503 kts | 156° |
| 2026-05-08 19:49 | 13.79763 | 0.05488 | 38820 ft | 505 kts | 156° |
| 2026-05-08 19:49 | 13.73451 | 0.08669 | 38819 ft | 504 kts | 156° |
| 2026-05-08 19:50 | 13.67196 | 0.11847 | 38814 ft | 502 kts | 156° |
| 2026-05-08 19:50 | 13.60919 | 0.15016 | 38811 ft | 501 kts | 156° |
| 2026-05-08 19:51 | 13.54682 | 0.18174 | 38814 ft | 503 kts | 156° |
| 2026-05-08 19:51 | 13.48379 | 0.21358 | 38819 ft | 505 kts | 155° |
| 2026-05-08 19:52 | 13.42057 | 0.24552 | 38817 ft | 506 kts | 155° |
| 2026-05-08 19:52 | 13.35777 | 0.27723 | 38816 ft | 504 kts | 155° |
| 2026-05-08 19:53 | 13.29469 | 0.30905 | 38819 ft | 503 kts | 155° |
| 2026-05-08 19:53 | 13.23181 | 0.34076 | 38816 ft | 502 kts | 156° |
| 2026-05-08 19:54 | 13.16897 | 0.37243 | 38818 ft | 502 kts | 155° |
| 2026-05-08 19:54 | 13.10649 | 0.40389 | 38818 ft | 504 kts | 155° |
| 2026-05-08 19:55 | 13.04379 | 0.43546 | 38823 ft | 502 kts | 155° |
| 2026-05-08 19:55 | 12.98108 | 0.46700 | 38824 ft | 501 kts | 155° |
| 2026-05-08 19:56 | 12.91842 | 0.49851 | 38824 ft | 502 kts | 155° |
| 2026-05-08 19:56 | 12.85548 | 0.53013 | 38829 ft | 503 kts | 155° |
| 2026-05-08 19:57 | 12.79283 | 0.56161 | 38835 ft | 505 kts | 155° |
| 2026-05-08 19:57 | 12.72973 | 0.59328 | 38833 ft | 499 kts | 155° |
| 2026-05-08 19:58 | 12.66798 | 0.62426 | 38827 ft | 496 kts | 155° |
| 2026-05-08 19:58 | 12.60591 | 0.65538 | 38829 ft | 497 kts | 155° |
| 2026-05-08 19:59 | 12.54345 | 0.68668 | 38831 ft | 499 kts | 155° |
| 2026-05-08 19:59 | 12.48096 | 0.71797 | 38836 ft | 500 kts | 155° |
| 2026-05-08 20:00 | 12.41865 | 0.74917 | 38837 ft | 499 kts | 155° |
| 2026-05-08 20:00 | 12.35677 | 0.78012 | 38838 ft | 496 kts | 154° |
| 2026-05-08 20:01 | 12.29473 | 0.81116 | 38825 ft | 495 kts | 154° |
| 2026-05-08 20:01 | 12.23320 | 0.84190 | 38825 ft | 495 kts | 154° |
| 2026-05-08 20:02 | 12.17126 | 0.87285 | 38822 ft | 496 kts | 154° |
| 2026-05-08 20:02 | 12.10916 | 0.90385 | 38824 ft | 496 kts | 154° |
| 2026-05-08 20:03 | 12.04697 | 0.93489 | 38840 ft | 497 kts | 154° |
| 2026-05-08 20:03 | 11.98525 | 0.96566 | 38830 ft | 493 kts | 154° |
| 2026-05-08 20:04 | 11.92348 | 0.99646 | 38835 ft | 493 kts | 154° |
| 2026-05-08 20:04 | 11.86183 | 1.02717 | 38836 ft | 493 kts | 153° |
| 2026-05-08 20:05 | 11.80012 | 1.05791 | 38830 ft | 493 kts | 154° |
| 2026-05-08 20:05 | 11.73876 | 1.08845 | 38839 ft | 492 kts | 153° |
| 2026-05-08 20:06 | 11.67721 | 1.11907 | 38825 ft | 491 kts | 154° |
| 2026-05-08 20:06 | 11.61540 | 1.14980 | 38837 ft | 495 kts | 153° |
| 2026-05-08 20:07 | 11.55314 | 1.18075 | 38841 ft | 499 kts | 153° |
| 2026-05-08 20:07 | 11.49096 | 1.21163 | 38841 ft | 498 kts | 154° |
| 2026-05-08 20:08 | 11.42899 | 1.24241 | 38845 ft | 498 kts | 154° |
| 2026-05-08 20:08 | 11.36671 | 1.27331 | 38846 ft | 497 kts | 154° |
| 2026-05-08 20:09 | 11.30433 | 1.30425 | 38850 ft | 498 kts | 153° |
| 2026-05-08 20:09 | 11.24243 | 1.33494 | 38843 ft | 492 kts | 153° |
| 2026-05-08 20:10 | 11.18119 | 1.36530 | 38842 ft | 492 kts | 153° |
| 2026-05-08 20:10 | 11.11936 | 1.39591 | 38849 ft | 494 kts | 153° |
| 2026-05-08 20:11 | 11.05776 | 1.42641 | 38851 ft | 494 kts | 153° |
| 2026-05-08 20:11 | 11.00645 | 1.45206 | 38858 ft | 493 kts | 150° |
| 2026-05-08 20:12 | 10.95073 | 1.49268 | 38866 ft | 493 kts | 141° |
| 2026-05-08 20:12 | 10.89605 | 1.53531 | 38866 ft | 494 kts | 143° |
| 2026-05-08 20:13 | 10.84077 | 1.57745 | 38884 ft | 497 kts | 142° |
| 2026-05-08 20:13 | 10.78604 | 1.61987 | 38883 ft | 496 kts | 142° |
| 2026-05-08 20:14 | 10.73075 | 1.66219 | 38880 ft | 496 kts | 142° |
| 2026-05-08 20:14 | 10.67577 | 1.70457 | 38888 ft | 496 kts | 142° |
| 2026-05-08 20:15 | 10.62092 | 1.74666 | 38893 ft | 495 kts | 142° |
| 2026-05-08 20:15 | 10.56613 | 1.78877 | 38903 ft | 495 kts | 142° |
| 2026-05-08 20:16 | 10.51110 | 1.83100 | 38900 ft | 495 kts | 142° |
| 2026-05-08 20:16 | 10.45628 | 1.87307 | 38895 ft | 495 kts | 142° |
| 2026-05-08 20:17 | 10.40131 | 1.91523 | 38898 ft | 495 kts | 142° |
| 2026-05-08 20:17 | 10.34596 | 1.95767 | 38899 ft | 500 kts | 142° |
| 2026-05-08 20:18 | 10.29035 | 2.00028 | 38902 ft | 500 kts | 142° |
| 2026-05-08 20:18 | 10.23517 | 2.04255 | 38904 ft | 499 kts | 142° |
| 2026-05-08 20:19 | 10.17957 | 2.08511 | 38908 ft | 501 kts | 142° |
| 2026-05-08 20:19 | 10.12380 | 2.12779 | 38906 ft | 502 kts | 142° |
| 2026-05-08 20:20 | 10.06791 | 2.17055 | 38913 ft | 502 kts | 142° |
| 2026-05-08 20:20 | 10.01243 | 2.21296 | 38915 ft | 502 kts | 142° |
| 2026-05-08 20:21 | 9.95664 | 2.25560 | 38919 ft | 501 kts | 142° |
| 2026-05-08 20:21 | 9.90103 | 2.29809 | 38918 ft | 500 kts | 142° |
| 2026-05-08 20:22 | 9.84541 | 2.34056 | 38920 ft | 504 kts | 142° |
| 2026-05-08 20:22 | 9.78935 | 2.38335 | 38917 ft | 504 kts | 143° |
| 2026-05-08 20:23 | 9.73330 | 2.42610 | 38918 ft | 502 kts | 143° |
| 2026-05-08 20:23 | 9.67746 | 2.46869 | 38911 ft | 501 kts | 143° |
| 2026-05-08 20:24 | 9.62199 | 2.51097 | 38916 ft | 502 kts | 143° |
| 2026-05-08 20:24 | 9.56601 | 2.55362 | 38919 ft | 504 kts | 143° |
| 2026-05-08 20:25 | 9.51012 | 2.59619 | 38924 ft | 505 kts | 143° |
| 2026-05-08 20:25 | 9.45395 | 2.63896 | 38923 ft | 503 kts | 143° |
| 2026-05-08 20:26 | 9.39831 | 2.68130 | 38905 ft | 495 kts | 143° |
| 2026-05-08 20:26 | 9.34348 | 2.72300 | 38930 ft | 497 kts | 143° |
| 2026-05-08 20:27 | 9.28802 | 2.76518 | 38927 ft | 498 kts | 143° |
| 2026-05-08 20:27 | 9.23249 | 2.80738 | 38926 ft | 497 kts | 143° |
| 2026-05-08 20:28 | 9.17710 | 2.84946 | 38927 ft | 497 kts | 143° |
| 2026-05-08 20:28 | 9.12180 | 2.89146 | 38928 ft | 497 kts | 144° |
| 2026-05-08 20:29 | 9.06695 | 2.93352 | 38916 ft | 497 kts | 140° |
| 2026-05-08 20:29 | 9.01783 | 2.98270 | 38929 ft | 497 kts | 134° |
| 2026-05-08 20:30 | 8.96915 | 3.03228 | 38919 ft | 496 kts | 135° |
| 2026-05-08 20:30 | 8.92025 | 3.08148 | 38932 ft | 495 kts | 134° |
| 2026-05-08 20:31 | 8.87187 | 3.13072 | 38928 ft | 495 kts | 134° |
| 2026-05-08 20:31 | 8.82299 | 3.17997 | 38934 ft | 495 kts | 134° |
| 2026-05-08 20:32 | 8.77426 | 3.22939 | 38934 ft | 496 kts | 134° |
| 2026-05-08 20:32 | 8.72539 | 3.27871 | 38933 ft | 496 kts | 134° |
| 2026-05-08 20:33 | 8.67673 | 3.32792 | 38937 ft | 498 kts | 134° |
| 2026-05-08 20:33 | 8.62757 | 3.37756 | 38937 ft | 499 kts | 134° |
| 2026-05-08 20:34 | 8.57834 | 3.42728 | 38938 ft | 499 kts | 134° |
| 2026-05-08 20:35 | 8.50483 | 3.50146 | 38923 ft | 498 kts | 134° |
| 2026-05-08 20:35 | 8.45570 | 3.55102 | 38923 ft | 498 kts | 134° |
| 2026-05-08 20:36 | 8.40686 | 3.60026 | 38922 ft | 498 kts | 134° |
| 2026-05-08 20:36 | 8.35763 | 3.64989 | 38937 ft | 499 kts | 134° |
| 2026-05-08 20:37 | 8.30874 | 3.69916 | 38927 ft | 501 kts | 134° |
| 2026-05-08 20:37 | 8.25912 | 3.74914 | 38929 ft | 502 kts | 134° |
| 2026-05-08 20:38 | 8.20968 | 3.79891 | 38921 ft | 501 kts | 134° |
| 2026-05-08 20:38 | 8.16051 | 3.84841 | 38922 ft | 501 kts | 134° |
| 2026-05-08 20:39 | 8.11114 | 3.89807 | 38921 ft | 501 kts | 134° |
| 2026-05-08 20:39 | 8.06189 | 3.94761 | 38940 ft | 502 kts | 135° |
| 2026-05-08 20:40 | 8.01231 | 3.99745 | 38924 ft | 502 kts | 134° |
| 2026-05-08 20:40 | 7.96286 | 4.04716 | 38927 ft | 504 kts | 134° |
| 2026-05-08 20:41 | 7.91331 | 4.09692 | 38925 ft | 501 kts | 134° |
| 2026-05-08 20:41 | 7.86413 | 4.14633 | 38930 ft | 500 kts | 134° |
| 2026-05-08 20:42 | 7.81478 | 4.19585 | 38919 ft | 500 kts | 134° |
| 2026-05-08 20:42 | 7.76516 | 4.24567 | 38939 ft | 504 kts | 135° |
| 2026-05-08 20:43 | 7.71571 | 4.29527 | 38942 ft | 504 kts | 135° |
| 2026-05-08 20:43 | 7.66602 | 4.34510 | 38942 ft | 504 kts | 135° |
| 2026-05-08 20:44 | 7.61634 | 4.39490 | 38942 ft | 503 kts | 134° |
| 2026-05-08 20:44 | 7.56703 | 4.44432 | 38940 ft | 501 kts | 135° |
| 2026-05-08 20:45 | 7.51765 | 4.49379 | 38940 ft | 500 kts | 134° |
| 2026-05-08 20:45 | 7.46824 | 4.54328 | 38939 ft | 500 kts | 134° |
| 2026-05-08 20:46 | 7.41879 | 4.59278 | 38937 ft | 499 kts | 134° |
| 2026-05-08 20:46 | 7.36981 | 4.64181 | 38938 ft | 498 kts | 134° |
| 2026-05-08 20:47 | 7.32055 | 4.69109 | 38934 ft | 498 kts | 134° |
| 2026-05-08 20:47 | 7.27124 | 4.74041 | 38943 ft | 499 kts | 134° |
| 2026-05-08 20:48 | 7.22225 | 4.78939 | 38941 ft | 499 kts | 134° |
| 2026-05-08 20:48 | 7.17276 | 4.83885 | 38945 ft | 500 kts | 134° |
| 2026-05-08 20:49 | 7.12357 | 4.88800 | 38945 ft | 501 kts | 134° |
| 2026-05-08 20:49 | 7.07412 | 4.93739 | 38938 ft | 499 kts | 134° |
| 2026-05-08 20:50 | 7.02473 | 4.98671 | 38942 ft | 500 kts | 134° |
| 2026-05-08 20:50 | 6.97558 | 5.03577 | 38941 ft | 499 kts | 134° |
| 2026-05-08 20:51 | 6.92629 | 5.08496 | 38935 ft | 500 kts | 134° |
| 2026-05-08 20:51 | 6.87674 | 5.13439 | 38936 ft | 500 kts | 134° |
| 2026-05-08 20:52 | 6.82725 | 5.18375 | 38940 ft | 501 kts | 134° |
| 2026-05-08 20:52 | 6.77818 | 5.23266 | 38928 ft | 497 kts | 134° |
| 2026-05-08 20:53 | 6.72898 | 5.28171 | 38923 ft | 497 kts | 134° |
| 2026-05-08 20:53 | 6.67980 | 5.33071 | 38921 ft | 496 kts | 134° |
| 2026-05-08 20:54 | 6.63105 | 5.37926 | 38925 ft | 495 kts | 134° |
| 2026-05-08 20:54 | 6.58215 | 5.42796 | 38920 ft | 494 kts | 134° |
| 2026-05-08 20:55 | 6.53310 | 5.47679 | 38922 ft | 496 kts | 134° |
| 2026-05-08 20:55 | 6.48423 | 5.52543 | 38921 ft | 497 kts | 134° |
| 2026-05-08 20:56 | 6.43489 | 5.57451 | 38934 ft | 498 kts | 134° |
| 2026-05-08 20:56 | 6.38568 | 5.62345 | 38922 ft | 495 kts | 134° |
| 2026-05-08 20:57 | 6.33702 | 5.67185 | 38913 ft | 494 kts | 134° |
| 2026-05-08 20:57 | 6.28807 | 5.72050 | 38921 ft | 494 kts | 134° |
| 2026-05-08 20:58 | 6.23937 | 5.76890 | 38925 ft | 496 kts | 134° |
| 2026-05-08 20:58 | 6.19015 | 5.81780 | 38931 ft | 497 kts | 134° |
| 2026-05-08 20:59 | 6.14096 | 5.86666 | 38928 ft | 496 kts | 134° |
| 2026-05-08 20:59 | 6.09216 | 5.91511 | 38926 ft | 495 kts | 134° |
| 2026-05-08 21:00 | 6.05110 | 5.95588 | 38924 ft | 494 kts | 134° |
| 2026-05-08 21:00 | 6.00249 | 6.00412 | 38920 ft | 492 kts | 134° |
| 2026-05-08 21:01 | 5.95385 | 6.05238 | 38922 ft | 494 kts | 134° |
| 2026-05-08 21:01 | 5.90488 | 6.10095 | 38929 ft | 494 kts | 134° |
| 2026-05-08 21:02 | 5.85592 | 6.14951 | 38926 ft | 493 kts | 134° |
| 2026-05-08 21:02 | 5.80715 | 6.19786 | 38922 ft | 491 kts | 134° |
| 2026-05-08 21:03 | 5.75873 | 6.24586 | 38923 ft | 492 kts | 134° |
| 2026-05-08 21:03 | 5.70988 | 6.29426 | 38926 ft | 494 kts | 134° |
| 2026-05-08 21:04 | 5.66078 | 6.34290 | 38933 ft | 494 kts | 134° |
| 2026-05-08 21:04 | 5.61233 | 6.39088 | 38930 ft | 490 kts | 134° |
| 2026-05-08 21:05 | 5.56372 | 6.43902 | 38925 ft | 490 kts | 134° |
| 2026-05-08 21:05 | 5.51540 | 6.48685 | 38925 ft | 489 kts | 134° |
| 2026-05-08 21:06 | 5.46711 | 6.53465 | 38933 ft | 487 kts | 134° |
| 2026-05-08 21:06 | 5.41864 | 6.58261 | 38938 ft | 489 kts | 134° |
| 2026-05-08 21:07 | 5.37035 | 6.63037 | 38937 ft | 490 kts | 134° |
| 2026-05-08 21:07 | 5.32166 | 6.67853 | 38934 ft | 489 kts | 134° |
| 2026-05-08 21:08 | 5.27324 | 6.72640 | 38929 ft | 485 kts | 134° |
| 2026-05-08 21:08 | 5.22562 | 6.77348 | 38925 ft | 482 kts | 134° |
| 2026-05-08 21:09 | 5.17772 | 6.82082 | 38925 ft | 484 kts | 134° |
| 2026-05-08 21:09 | 5.12956 | 6.86840 | 38923 ft | 487 kts | 134° |
| 2026-05-08 21:10 | 5.08143 | 6.91595 | 38921 ft | 486 kts | 134° |
| 2026-05-08 21:10 | 5.03395 | 6.96409 | 38890 ft | 483 kts | 127° |
| 2026-05-08 21:11 | 4.99488 | 7.01835 | 38915 ft | 483 kts | 124° |
| 2026-05-08 21:11 | 4.95531 | 7.07308 | 38924 ft | 483 kts | 124° |
| 2026-05-08 21:12 | 4.91606 | 7.12786 | 38938 ft | 484 kts | 124° |
| 2026-05-08 21:12 | 4.89677 | 7.15467 | 38557 ft | 478 kts | 123° |
| 2026-05-08 21:12 | 4.87727 | 7.18172 | 37800 ft | 477 kts | 123° |
| 2026-05-08 21:12 | 4.85791 | 7.20863 | 37121 ft | 474 kts | 123° |
| 2026-05-08 21:13 | 4.83869 | 7.23540 | 36478 ft | 472 kts | 123° |
| 2026-05-08 21:13 | 4.81946 | 7.26215 | 35846 ft | 472 kts | 123° |
| 2026-05-08 21:13 | 4.80012 | 7.28902 | 35216 ft | 474 kts | 123° |
| 2026-05-08 21:13 | 4.78103 | 7.31554 | 34589 ft | 472 kts | 123° |
| 2026-05-08 21:14 | 4.76190 | 7.34212 | 33965 ft | 468 kts | 122° |
| 2026-05-08 21:14 | 4.74286 | 7.36858 | 33273 ft | 465 kts | 122° |
| 2026-05-08 21:14 | 4.72398 | 7.39483 | 32649 ft | 461 kts | 122° |
| 2026-05-08 21:14 | 4.70529 | 7.42078 | 32037 ft | 457 kts | 122° |
| 2026-05-08 21:15 | 4.68678 | 7.44649 | 31443 ft | 453 kts | 122° |
| 2026-05-08 21:15 | 4.66844 | 7.47198 | 30853 ft | 449 kts | 122° |
| 2026-05-08 21:15 | 4.65037 | 7.49709 | 30270 ft | 445 kts | 122° |
| 2026-05-08 21:15 | 4.63229 | 7.52219 | 29658 ft | 442 kts | 122° |
| 2026-05-08 21:16 | 4.61432 | 7.54717 | 29031 ft | 438 kts | 122° |
| 2026-05-08 21:16 | 4.59660 | 7.57176 | 28447 ft | 433 kts | 122° |
| 2026-05-08 21:16 | 4.57905 | 7.59613 | 27884 ft | 428 kts | 122° |
| 2026-05-08 21:16 | 4.56197 | 7.61984 | 27339 ft | 423 kts | 122° |
| 2026-05-08 21:17 | 4.54478 | 7.64370 | 26796 ft | 418 kts | 123° |
| 2026-05-08 21:17 | 4.52780 | 7.66728 | 26263 ft | 413 kts | 123° |
| 2026-05-08 21:17 | 4.51108 | 7.69049 | 25741 ft | 408 kts | 123° |
| 2026-05-08 21:17 | 4.49451 | 7.71348 | 25228 ft | 404 kts | 123° |
| 2026-05-08 21:18 | 4.47838 | 7.73587 | 24729 ft | 399 kts | 123° |
| 2026-05-08 21:18 | 4.46213 | 7.75842 | 24217 ft | 395 kts | 124° |
| 2026-05-08 21:18 | 4.44605 | 7.78074 | 23736 ft | 391 kts | 124° |
| 2026-05-08 21:18 | 4.43015 | 7.80278 | 23203 ft | 387 kts | 124° |
| 2026-05-08 21:19 | 4.41463 | 7.82431 | 22675 ft | 383 kts | 124° |
| 2026-05-08 21:19 | 4.39909 | 7.84585 | 22148 ft | 378 kts | 124° |
| 2026-05-08 21:19 | 4.38377 | 7.86711 | 21665 ft | 373 kts | 124° |
| 2026-05-08 21:19 | 4.36861 | 7.88814 | 21177 ft | 370 kts | 124° |
| 2026-05-08 21:20 | 4.35350 | 7.90910 | 20730 ft | 370 kts | 123° |
| 2026-05-08 21:20 | 4.33841 | 7.93003 | 20276 ft | 371 kts | 123° |
| 2026-05-08 21:20 | 4.32350 | 7.95069 | 19823 ft | 368 kts | 123° |
| 2026-05-08 21:20 | 4.30859 | 7.97134 | 19371 ft | 363 kts | 123° |
| 2026-05-08 21:21 | 4.29387 | 7.99176 | 18926 ft | 360 kts | 123° |
| 2026-05-08 21:21 | 4.27913 | 8.01220 | 18485 ft | 360 kts | 123° |
| 2026-05-08 21:21 | 4.26441 | 8.03262 | 18020 ft | 361 kts | 123° |
| 2026-05-08 21:21 | 4.24993 | 8.05268 | 17515 ft | 357 kts | 123° |
| 2026-05-08 21:22 | 4.23545 | 8.07273 | 17056 ft | 351 kts | 123° |
| 2026-05-08 21:22 | 4.22124 | 8.09243 | 16620 ft | 347 kts | 123° |
| 2026-05-08 21:22 | 4.20708 | 8.11207 | 16200 ft | 347 kts | 123° |
| 2026-05-08 21:22 | 4.19294 | 8.13166 | 15789 ft | 347 kts | 123° |
| 2026-05-08 21:23 | 4.17899 | 8.15098 | 15381 ft | 342 kts | 123° |
| 2026-05-08 21:23 | 4.16514 | 8.17014 | 14969 ft | 337 kts | 123° |
| 2026-05-08 21:23 | 4.15144 | 8.18914 | 14546 ft | 336 kts | 123° |
| 2026-05-08 21:23 | 4.13773 | 8.20815 | 14148 ft | 337 kts | 123° |
| 2026-05-08 21:24 | 4.12400 | 8.22716 | 13744 ft | 334 kts | 123° |
| 2026-05-08 21:24 | 4.11049 | 8.24585 | 13259 ft | 328 kts | 123° |
| 2026-05-08 21:24 | 4.09710 | 8.26440 | 12843 ft | 327 kts | 122° |
| 2026-05-08 21:24 | 4.08394 | 8.28265 | 12440 ft | 327 kts | 122° |
| 2026-05-08 21:25 | 4.07061 | 8.30110 | 12024 ft | 326 kts | 123° |
| 2026-05-08 21:25 | 4.05747 | 8.31928 | 11613 ft | 319 kts | 122° |
| 2026-05-08 21:25 | 4.04452 | 8.33721 | 11209 ft | 318 kts | 122° |
| 2026-05-08 21:25 | 4.03172 | 8.35492 | 10881 ft | 300 kts | 122° |
| 2026-05-08 21:26 | 4.02012 | 8.37102 | 10729 ft | 271 kts | 120° |
| 2026-05-08 21:26 | 4.01301 | 8.38776 | 10513 ft | 257 kts | 101° |
| 2026-05-08 21:26 | 4.01080 | 8.40525 | 10391 ft | 256 kts | 93° |
| 2026-05-08 21:26 | 4.00920 | 8.42328 | 10196 ft | 262 kts | 93° |
| 2026-05-08 21:27 | 4.00753 | 8.44121 | 9962 ft | 255 kts | 94° |
| 2026-05-08 21:27 | 4.00579 | 8.45895 | 9733 ft | 257 kts | 94° |
| 2026-05-08 21:27 | 4.00406 | 8.47684 | 9484 ft | 259 kts | 94° |
| 2026-05-08 21:27 | 4.00233 | 8.49484 | 9231 ft | 258 kts | 94° |
| 2026-05-08 21:28 | 4.00063 | 8.51250 | 8982 ft | 254 kts | 94° |
| 2026-05-08 21:28 | 3.99893 | 8.53024 | 8739 ft | 257 kts | 94° |
| 2026-05-08 21:28 | 3.99721 | 8.54817 | 8502 ft | 260 kts | 94° |
| 2026-05-08 21:28 | 3.99550 | 8.56584 | 8253 ft | 254 kts | 94° |
| 2026-05-08 21:29 | 3.99380 | 8.58349 | 8009 ft | 255 kts | 94° |
| 2026-05-08 21:29 | 3.99209 | 8.60130 | 7770 ft | 258 kts | 95° |
| 2026-05-08 21:29 | 3.99035 | 8.61933 | 7521 ft | 259 kts | 95° |
| 2026-05-08 21:29 | 3.98864 | 8.63709 | 7270 ft | 254 kts | 95° |
| 2026-05-08 21:30 | 3.98692 | 8.65486 | 7028 ft | 257 kts | 95° |
| 2026-05-08 21:30 | 3.98520 | 8.67271 | 6787 ft | 259 kts | 95° |
| 2026-05-08 21:30 | 3.98346 | 8.69071 | 6536 ft | 257 kts | 95° |
| 2026-05-08 21:30 | 3.98178 | 8.70815 | 6282 ft | 253 kts | 95° |
| 2026-05-08 21:31 | 3.98007 | 8.72584 | 6027 ft | 257 kts | 95° |
| 2026-05-08 21:31 | 3.97835 | 8.74376 | 5763 ft | 258 kts | 95° |
| 2026-05-08 21:31 | 3.97664 | 8.76142 | 5497 ft | 254 kts | 95° |
| 2026-05-08 21:31 | 3.97489 | 8.77926 | 5228 ft | 257 kts | 96° |
| 2026-05-08 21:32 | 3.96970 | 8.79543 | 4908 ft | 231 kts | 122° |
| 2026-05-08 21:32 | 3.96007 | 8.80732 | 4704 ft | 213 kts | 131° |
| 2026-05-08 21:32 | 3.95029 | 8.81804 | 4497 ft | 203 kts | 132° |
| 2026-05-08 21:32 | 3.94106 | 8.82811 | 4299 ft | 194 kts | 132° |
| 2026-05-08 21:33 | 3.93223 | 8.83789 | 4110 ft | 185 kts | 131° |
| 2026-05-08 21:33 | 3.92235 | 8.84583 | 3790 ft | 185 kts | 157° |
| 2026-05-08 21:33 | 3.90963 | 8.84553 | 3359 ft | 186 kts | 199° |
| 2026-05-08 21:33 | 3.89957 | 8.83812 | 3255 ft | 177 kts | 223° |
| 2026-05-08 21:34 | 3.89023 | 8.82979 | 3198 ft | 184 kts | 221° |
| 2026-05-08 21:34 | 3.88053 | 8.82116 | 3006 ft | 186 kts | 221° |
| 2026-05-08 21:34 | 3.87099 | 8.81260 | 2754 ft | 182 kts | 221° |
| 2026-05-08 21:34 | 3.86165 | 8.80421 | 2518 ft | 177 kts | 221° |
| 2026-05-08 21:35 | 3.85258 | 8.79605 | 2287 ft | 172 kts | 221° |
| 2026-05-08 21:35 | 3.84404 | 8.78837 | 2078 ft | 161 kts | 221° |
| 2026-05-08 21:35 | 3.83589 | 8.78105 | 1870 ft | 154 kts | 221° |
| 2026-05-08 21:35 | 3.82794 | 8.77390 | 1674 ft | 153 kts | 221° |
| 2026-05-08 21:36 | 3.82011 | 8.76688 | 1481 ft | 151 kts | 221° |
| 2026-05-08 21:36 | 3.81223 | 8.75979 | 1295 ft | 152 kts | 221° |
| 2026-05-08 21:36 | 3.80434 | 8.75271 | 1109 ft | 151 kts | 221° |
| 2026-05-08 21:36 | 3.79660 | 8.74579 | 929 ft | 151 kts | 222° |
| 2026-05-08 21:37 | 3.78885 | 8.73878 | 742 ft | 148 kts | 222° |
| 2026-05-08 21:37 | 3.78126 | 8.73187 | 547 ft | 146 kts | 223° |
| 2026-05-08 21:37 | 3.77372 | 8.72511 | 329 ft | 145 kts | 222° |
| 2026-05-08 21:37 | 3.76627 | 8.71845 | 143 ft | 146 kts | 220° |
| 2026-05-08 21:38 | 3.75896 | 8.71192 | 65 ft | 127 kts | 221° |
| 2026-05-08 21:38 | 3.75371 | 8.70726 | 85 ft | 76 kts | 221° |
| 2026-05-08 21:38 | 3.75070 | 8.70462 | 85 ft | 43 kts | 221° |
| 2026-05-08 21:38 | 3.74934 | 8.70423 | 69 ft | 12 kts | 133° |
| 2026-05-08 21:39 | 3.74876 | 8.70496 | 66 ft | 12 kts | 110° |
| 2026-05-08 21:39 | 3.74896 | 8.70540 | 65 ft | 7 kts | 46° |
| 2026-05-08 21:39 | 3.74934 | 8.70575 | 68 ft | 8 kts | 41° |
| 2026-05-08 21:39 | 3.74980 | 8.70617 | 67 ft | 10 kts | 41° |
| 2026-05-08 21:40 | 3.75035 | 8.70666 | 74 ft | 11 kts | 41° |
| 2026-05-08 21:40 | 3.75099 | 8.70724 | 67 ft | 13 kts | 41° |
| 2026-05-08 21:40 | 3.75172 | 8.70788 | 67 ft | 15 kts | 42° |
| 2026-05-08 21:41 | 3.75338 | 8.70938 | 66 ft | 17 kts | 42° |
| 2026-05-08 21:41 | 3.75432 | 8.71023 | 68 ft | 19 kts | 42° |
| 2026-05-08 21:41 | 3.75531 | 8.71112 | 70 ft | 20 kts | 42° |
| 2026-05-08 21:41 | 3.75638 | 8.71208 | 66 ft | 21 kts | 42° |
| 2026-05-08 21:42 | 3.75747 | 8.71308 | 65 ft | 19 kts | 51° |
| 2026-05-08 21:42 | 3.75759 | 8.71386 | 69 ft | 10 kts | 76° |
| 2026-05-08 21:42 | 3.75803 | 8.71435 | 66 ft | 10 kts | 43° |
| 2026-05-08 21:42 | 3.75825 | 8.71474 | 66 ft | 2 kts | 97° |
| 2026-05-08 21:43 | 3.75814 | 8.71491 | 66 ft | 7 kts | 128° |
| 2026-05-08 21:43 | 3.75795 | 8.71515 | 69 ft | 1 kts | 128° |
| 2026-05-08 21:43 | 3.75789 | 8.71521 | 70 ft | 2 kts | 132° |
| 2026-05-08 21:43 | 3.75787 | 8.71524 | 66 ft | 0 kts | 132° |